<?xml version="1.0" encoding="UTF-8" standalone="no" ?>
<gpx xmlns="http://www.topografix.com/GPX/1/1" xmlns:xsi="http://www.w3.org/2001/XMLSchema-instance" xsi:schemaLocation="http://www.topografix.com/GPX/1/1 http://www.topografix.com/GPX/1/1/gpx.xsd" version="1.1" creator="VisuGPX - https://www.visugpx.com">
  <metadata>
    <name> étapes en Corse</name>
    <desc><![CDATA[Etape 1 les Agriates
Etape 2 îles Rousse-Calvi
Etape 3  Galeria Scandola]]></desc>
  </metadata>
  <wpt lat="43.22555" lon="6.44935">
    <ele>54</ele>
    <name><![CDATA[parking]]></name>
    <desc><![CDATA[16-MAI-15 9:26:59]]></desc>
    <cmt><![CDATA[16-MAI-15 9:26:59]]></cmt>
    <type><![CDATA[user]]></type>
  </wpt>
  <wpt lat="43.23505" lon="6.4006">
    <ele>423</ele>
    <name><![CDATA[parking02]]></name>
    <desc><![CDATA[16-MAI-15 12:19:33]]></desc>
    <cmt><![CDATA[16-MAI-15 12:19:33]]></cmt>
    <type><![CDATA[user]]></type>
  </wpt>
  <wpt lat="43.21304" lon="6.4631">
    <ele>42</ele>
    <name><![CDATA[piste]]></name>
    <desc><![CDATA[Chemin]]></desc>
    <cmt><![CDATA[Chemin]]></cmt>
    <type><![CDATA[user]]></type>
  </wpt>
  <trk>
    <name><![CDATA[Tracé actuel: 01 JUIN 2017 09:15 001]]></name>
    <trkseg>
      <trkpt lat="42.67691" lon="9.28382">
        <ele>5.64</ele>
        <time>2017-06-01T07:15:48Z</time>
      </trkpt>
      <trkpt lat="42.6769" lon="9.28382">
        <ele>5.18</ele>
        <time>2017-06-01T07:16:08Z</time>
      </trkpt>
      <trkpt lat="42.67689" lon="9.28382">
        <ele>5.49</ele>
        <time>2017-06-01T07:16:35Z</time>
      </trkpt>
      <trkpt lat="42.67687" lon="9.28383">
        <ele>5.48</ele>
        <time>2017-06-01T07:17:02Z</time>
      </trkpt>
      <trkpt lat="42.67689" lon="9.28383">
        <ele>5.35</ele>
        <time>2017-06-01T07:17:29Z</time>
      </trkpt>
      <trkpt lat="42.67688" lon="9.28384">
        <ele>5.57</ele>
        <time>2017-06-01T07:17:51Z</time>
      </trkpt>
      <trkpt lat="42.67688" lon="9.28383">
        <ele>5.37</ele>
        <time>2017-06-01T07:18:18Z</time>
      </trkpt>
      <trkpt lat="42.67687" lon="9.28382">
        <ele>5.23</ele>
        <time>2017-06-01T07:18:40Z</time>
      </trkpt>
      <trkpt lat="42.6769" lon="9.28385">
        <ele>5.48</ele>
        <time>2017-06-01T07:18:50Z</time>
      </trkpt>
      <trkpt lat="42.67698" lon="9.28395">
        <ele>5.14</ele>
        <time>2017-06-01T07:19:05Z</time>
      </trkpt>
      <trkpt lat="42.67699" lon="9.28395">
        <ele>4.49</ele>
        <time>2017-06-01T07:19:40Z</time>
      </trkpt>
      <trkpt lat="42.67697" lon="9.28395">
        <ele>5.28</ele>
        <time>2017-06-01T07:19:57Z</time>
      </trkpt>
      <trkpt lat="42.67699" lon="9.28395">
        <ele>4.01</ele>
        <time>2017-06-01T07:20:25Z</time>
      </trkpt>
      <trkpt lat="42.67697" lon="9.28397">
        <ele>4.99</ele>
        <time>2017-06-01T07:21:02Z</time>
      </trkpt>
      <trkpt lat="42.67695" lon="9.28395">
        <ele>4.58</ele>
        <time>2017-06-01T07:21:34Z</time>
      </trkpt>
      <trkpt lat="42.67696" lon="9.28395">
        <ele>4.98</ele>
        <time>2017-06-01T07:21:55Z</time>
      </trkpt>
      <trkpt lat="42.67695" lon="9.28396">
        <ele>5.09</ele>
        <time>2017-06-01T07:22:22Z</time>
      </trkpt>
      <trkpt lat="42.67696" lon="9.28397">
        <ele>4.95</ele>
        <time>2017-06-01T07:22:50Z</time>
      </trkpt>
      <trkpt lat="42.67696" lon="9.28397">
        <ele>4.88</ele>
        <time>2017-06-01T07:23:14Z</time>
      </trkpt>
      <trkpt lat="42.677" lon="9.28399">
        <ele>4.79</ele>
        <time>2017-06-01T07:23:41Z</time>
      </trkpt>
      <trkpt lat="42.67705" lon="9.28402">
        <ele>4.6</ele>
        <time>2017-06-01T07:23:56Z</time>
      </trkpt>
      <trkpt lat="42.67708" lon="9.28403">
        <ele>4.42</ele>
        <time>2017-06-01T07:24:12Z</time>
      </trkpt>
      <trkpt lat="42.67718" lon="9.2841">
        <ele>4.09</ele>
        <time>2017-06-01T07:24:31Z</time>
      </trkpt>
      <trkpt lat="42.67721" lon="9.28415">
        <ele>3.82</ele>
        <time>2017-06-01T07:24:51Z</time>
      </trkpt>
      <trkpt lat="42.67727" lon="9.28431">
        <ele>3.76</ele>
        <time>2017-06-01T07:25:27Z</time>
      </trkpt>
      <trkpt lat="42.67759" lon="9.28436">
        <ele>4.41</ele>
        <time>2017-06-01T07:25:48Z</time>
      </trkpt>
      <trkpt lat="42.67804" lon="9.28435">
        <ele>4.13</ele>
        <time>2017-06-01T07:26:10Z</time>
      </trkpt>
      <trkpt lat="42.67842" lon="9.28437">
        <ele>4.14</ele>
        <time>2017-06-01T07:26:30Z</time>
      </trkpt>
      <trkpt lat="42.67881" lon="9.28436">
        <ele>4.2</ele>
        <time>2017-06-01T07:26:50Z</time>
      </trkpt>
      <trkpt lat="42.67926" lon="9.28431">
        <ele>4.22</ele>
        <time>2017-06-01T07:27:12Z</time>
      </trkpt>
      <trkpt lat="42.67964" lon="9.28432">
        <ele>3.9</ele>
        <time>2017-06-01T07:27:33Z</time>
      </trkpt>
      <trkpt lat="42.67998" lon="9.28424">
        <ele>4.02</ele>
        <time>2017-06-01T07:27:54Z</time>
      </trkpt>
      <trkpt lat="42.6803" lon="9.28416">
        <ele>4.1</ele>
        <time>2017-06-01T07:28:15Z</time>
      </trkpt>
      <trkpt lat="42.68068" lon="9.28404">
        <ele>4.04</ele>
        <time>2017-06-01T07:28:35Z</time>
      </trkpt>
      <trkpt lat="42.68112" lon="9.28389">
        <ele>4.18</ele>
        <time>2017-06-01T07:28:57Z</time>
      </trkpt>
      <trkpt lat="42.68143" lon="9.28381">
        <ele>4.08</ele>
        <time>2017-06-01T07:29:15Z</time>
      </trkpt>
      <trkpt lat="42.6819" lon="9.28368">
        <ele>4.18</ele>
        <time>2017-06-01T07:29:36Z</time>
      </trkpt>
      <trkpt lat="42.68234" lon="9.28349">
        <ele>4.18</ele>
        <time>2017-06-01T07:29:57Z</time>
      </trkpt>
      <trkpt lat="42.68277" lon="9.28327">
        <ele>4.3</ele>
        <time>2017-06-01T07:30:18Z</time>
      </trkpt>
      <trkpt lat="42.68321" lon="9.28305">
        <ele>4.2</ele>
        <time>2017-06-01T07:30:39Z</time>
      </trkpt>
      <trkpt lat="42.68356" lon="9.28291">
        <ele>4.32</ele>
        <time>2017-06-01T07:30:56Z</time>
      </trkpt>
      <trkpt lat="42.6839" lon="9.28274">
        <ele>4.24</ele>
        <time>2017-06-01T07:31:14Z</time>
      </trkpt>
      <trkpt lat="42.68435" lon="9.28248">
        <ele>4.24</ele>
        <time>2017-06-01T07:31:36Z</time>
      </trkpt>
      <trkpt lat="42.68475" lon="9.28229">
        <ele>4.24</ele>
        <time>2017-06-01T07:31:56Z</time>
      </trkpt>
      <trkpt lat="42.68517" lon="9.28212">
        <ele>4.01</ele>
        <time>2017-06-01T07:32:16Z</time>
      </trkpt>
      <trkpt lat="42.68555" lon="9.28197">
        <ele>4.16</ele>
        <time>2017-06-01T07:32:34Z</time>
      </trkpt>
      <trkpt lat="42.68599" lon="9.28176">
        <ele>4.22</ele>
        <time>2017-06-01T07:32:55Z</time>
      </trkpt>
      <trkpt lat="42.6864" lon="9.28151">
        <ele>4.03</ele>
        <time>2017-06-01T07:33:15Z</time>
      </trkpt>
      <trkpt lat="42.68683" lon="9.28126">
        <ele>3.9</ele>
        <time>2017-06-01T07:33:36Z</time>
      </trkpt>
      <trkpt lat="42.68723" lon="9.28103">
        <ele>4.05</ele>
        <time>2017-06-01T07:33:56Z</time>
      </trkpt>
      <trkpt lat="42.68761" lon="9.28085">
        <ele>4</ele>
        <time>2017-06-01T07:34:15Z</time>
      </trkpt>
      <trkpt lat="42.68802" lon="9.28067">
        <ele>3.91</ele>
        <time>2017-06-01T07:34:35Z</time>
      </trkpt>
      <trkpt lat="42.68841" lon="9.28052">
        <ele>3.97</ele>
        <time>2017-06-01T07:34:54Z</time>
      </trkpt>
      <trkpt lat="42.68881" lon="9.28042">
        <ele>3.84</ele>
        <time>2017-06-01T07:35:14Z</time>
      </trkpt>
      <trkpt lat="42.6892" lon="9.28026">
        <ele>3.71</ele>
        <time>2017-06-01T07:35:33Z</time>
      </trkpt>
      <trkpt lat="42.68961" lon="9.28004">
        <ele>3.76</ele>
        <time>2017-06-01T07:35:54Z</time>
      </trkpt>
      <trkpt lat="42.68994" lon="9.27974">
        <ele>3.91</ele>
        <time>2017-06-01T07:36:13Z</time>
      </trkpt>
      <trkpt lat="42.6902" lon="9.27932">
        <ele>3.84</ele>
        <time>2017-06-01T07:36:32Z</time>
      </trkpt>
      <trkpt lat="42.69041" lon="9.279">
        <ele>3.86</ele>
        <time>2017-06-01T07:36:52Z</time>
      </trkpt>
      <trkpt lat="42.69048" lon="9.27888">
        <ele>3.76</ele>
        <time>2017-06-01T07:37:11Z</time>
      </trkpt>
      <trkpt lat="42.69072" lon="9.27867">
        <ele>3.78</ele>
        <time>2017-06-01T07:37:30Z</time>
      </trkpt>
      <trkpt lat="42.69109" lon="9.27846">
        <ele>3.66</ele>
        <time>2017-06-01T07:37:50Z</time>
      </trkpt>
      <trkpt lat="42.69153" lon="9.27825">
        <ele>3.74</ele>
        <time>2017-06-01T07:38:12Z</time>
      </trkpt>
      <trkpt lat="42.69202" lon="9.278">
        <ele>3.46</ele>
        <time>2017-06-01T07:38:36Z</time>
      </trkpt>
      <trkpt lat="42.69249" lon="9.27771">
        <ele>3.18</ele>
        <time>2017-06-01T07:39:00Z</time>
      </trkpt>
      <trkpt lat="42.69292" lon="9.27747">
        <ele>3.26</ele>
        <time>2017-06-01T07:39:21Z</time>
      </trkpt>
      <trkpt lat="42.69319" lon="9.27728">
        <ele>3.19</ele>
        <time>2017-06-01T07:39:37Z</time>
      </trkpt>
      <trkpt lat="42.69332" lon="9.27716">
        <ele>3.04</ele>
        <time>2017-06-01T07:40:00Z</time>
      </trkpt>
      <trkpt lat="42.69351" lon="9.27692">
        <ele>2.94</ele>
        <time>2017-06-01T07:40:20Z</time>
      </trkpt>
      <trkpt lat="42.69367" lon="9.27651">
        <ele>3.15</ele>
        <time>2017-06-01T07:40:37Z</time>
      </trkpt>
      <trkpt lat="42.69388" lon="9.27605">
        <ele>2.94</ele>
        <time>2017-06-01T07:40:56Z</time>
      </trkpt>
      <trkpt lat="42.69414" lon="9.27557">
        <ele>2.94</ele>
        <time>2017-06-01T07:41:18Z</time>
      </trkpt>
      <trkpt lat="42.69431" lon="9.27526">
        <ele>2.74</ele>
        <time>2017-06-01T07:41:41Z</time>
      </trkpt>
      <trkpt lat="42.69447" lon="9.27497">
        <ele>2.93</ele>
        <time>2017-06-01T07:42:02Z</time>
      </trkpt>
      <trkpt lat="42.69466" lon="9.27451">
        <ele>2.93</ele>
        <time>2017-06-01T07:42:23Z</time>
      </trkpt>
      <trkpt lat="42.6949" lon="9.27389">
        <ele>2.83</ele>
        <time>2017-06-01T07:42:48Z</time>
      </trkpt>
      <trkpt lat="42.69513" lon="9.27349">
        <ele>2.65</ele>
        <time>2017-06-01T07:43:06Z</time>
      </trkpt>
      <trkpt lat="42.69542" lon="9.27322">
        <ele>2.68</ele>
        <time>2017-06-01T07:43:23Z</time>
      </trkpt>
      <trkpt lat="42.69582" lon="9.27296">
        <ele>2.57</ele>
        <time>2017-06-01T07:43:44Z</time>
      </trkpt>
      <trkpt lat="42.69617" lon="9.27274">
        <ele>2.92</ele>
        <time>2017-06-01T07:44:02Z</time>
      </trkpt>
      <trkpt lat="42.69649" lon="9.27252">
        <ele>2.67</ele>
        <time>2017-06-01T07:44:19Z</time>
      </trkpt>
      <trkpt lat="42.69685" lon="9.27222">
        <ele>2.77</ele>
        <time>2017-06-01T07:44:39Z</time>
      </trkpt>
      <trkpt lat="42.69712" lon="9.27201">
        <ele>2.68</ele>
        <time>2017-06-01T07:44:54Z</time>
      </trkpt>
      <trkpt lat="42.6975" lon="9.2717">
        <ele>3</ele>
        <time>2017-06-01T07:45:15Z</time>
      </trkpt>
      <trkpt lat="42.69795" lon="9.27148">
        <ele>2.59</ele>
        <time>2017-06-01T07:45:38Z</time>
      </trkpt>
      <trkpt lat="42.69828" lon="9.27135">
        <ele>2.64</ele>
        <time>2017-06-01T07:45:57Z</time>
      </trkpt>
      <trkpt lat="42.69866" lon="9.27125">
        <ele>2.36</ele>
        <time>2017-06-01T07:46:16Z</time>
      </trkpt>
      <trkpt lat="42.69896" lon="9.27116">
        <ele>2.49</ele>
        <time>2017-06-01T07:46:33Z</time>
      </trkpt>
      <trkpt lat="42.69937" lon="9.27109">
        <ele>2.54</ele>
        <time>2017-06-01T07:46:54Z</time>
      </trkpt>
      <trkpt lat="42.69978" lon="9.27103">
        <ele>2.24</ele>
        <time>2017-06-01T07:47:14Z</time>
      </trkpt>
      <trkpt lat="42.70008" lon="9.27097">
        <ele>2.37</ele>
        <time>2017-06-01T07:47:31Z</time>
      </trkpt>
      <trkpt lat="42.70046" lon="9.27086">
        <ele>2.48</ele>
        <time>2017-06-01T07:47:51Z</time>
      </trkpt>
      <trkpt lat="42.70071" lon="9.27067">
        <ele>2.51</ele>
        <time>2017-06-01T07:48:09Z</time>
      </trkpt>
      <trkpt lat="42.70092" lon="9.27036">
        <ele>2.31</ele>
        <time>2017-06-01T07:48:25Z</time>
      </trkpt>
      <trkpt lat="42.70108" lon="9.27013">
        <ele>2.41</ele>
        <time>2017-06-01T07:48:37Z</time>
      </trkpt>
      <trkpt lat="42.70129" lon="9.26989">
        <ele>2.38</ele>
        <time>2017-06-01T07:48:54Z</time>
      </trkpt>
      <trkpt lat="42.70148" lon="9.26957">
        <ele>2.4</ele>
        <time>2017-06-01T07:49:12Z</time>
      </trkpt>
      <trkpt lat="42.70166" lon="9.26938">
        <ele>2.3</ele>
        <time>2017-06-01T07:49:25Z</time>
      </trkpt>
      <trkpt lat="42.70192" lon="9.26917">
        <ele>2.36</ele>
        <time>2017-06-01T07:49:41Z</time>
      </trkpt>
      <trkpt lat="42.70213" lon="9.26895">
        <ele>2.16</ele>
        <time>2017-06-01T07:49:57Z</time>
      </trkpt>
      <trkpt lat="42.70216" lon="9.26865">
        <ele>2.07</ele>
        <time>2017-06-01T07:50:12Z</time>
      </trkpt>
      <trkpt lat="42.70206" lon="9.26836">
        <ele>2.25</ele>
        <time>2017-06-01T07:50:24Z</time>
      </trkpt>
      <trkpt lat="42.70191" lon="9.26798">
        <ele>2.21</ele>
        <time>2017-06-01T07:50:38Z</time>
      </trkpt>
      <trkpt lat="42.70178" lon="9.26751">
        <ele>2.2</ele>
        <time>2017-06-01T07:50:54Z</time>
      </trkpt>
      <trkpt lat="42.70167" lon="9.26713">
        <ele>2.27</ele>
        <time>2017-06-01T07:51:07Z</time>
      </trkpt>
      <trkpt lat="42.70158" lon="9.26671">
        <ele>2.1</ele>
        <time>2017-06-01T07:51:21Z</time>
      </trkpt>
      <trkpt lat="42.7015" lon="9.26625">
        <ele>1.95</ele>
        <time>2017-06-01T07:51:37Z</time>
      </trkpt>
      <trkpt lat="42.70146" lon="9.26587">
        <ele>1.99</ele>
        <time>2017-06-01T07:51:50Z</time>
      </trkpt>
      <trkpt lat="42.7015" lon="9.2654">
        <ele>2.03</ele>
        <time>2017-06-01T07:52:06Z</time>
      </trkpt>
      <trkpt lat="42.70156" lon="9.26509">
        <ele>2.16</ele>
        <time>2017-06-01T07:52:17Z</time>
      </trkpt>
      <trkpt lat="42.70167" lon="9.26467">
        <ele>2.13</ele>
        <time>2017-06-01T07:52:32Z</time>
      </trkpt>
      <trkpt lat="42.70173" lon="9.26427">
        <ele>2.66</ele>
        <time>2017-06-01T07:52:48Z</time>
      </trkpt>
      <trkpt lat="42.70179" lon="9.26397">
        <ele>2.56</ele>
        <time>2017-06-01T07:53:00Z</time>
      </trkpt>
      <trkpt lat="42.70188" lon="9.26351">
        <ele>2.61</ele>
        <time>2017-06-01T07:53:18Z</time>
      </trkpt>
      <trkpt lat="42.702" lon="9.2631">
        <ele>2.57</ele>
        <time>2017-06-01T07:53:34Z</time>
      </trkpt>
      <trkpt lat="42.70205" lon="9.2627">
        <ele>2.56</ele>
        <time>2017-06-01T07:53:51Z</time>
      </trkpt>
      <trkpt lat="42.70208" lon="9.26236">
        <ele>2.7</ele>
        <time>2017-06-01T07:54:04Z</time>
      </trkpt>
      <trkpt lat="42.70225" lon="9.26192">
        <ele>2.71</ele>
        <time>2017-06-01T07:54:21Z</time>
      </trkpt>
      <trkpt lat="42.7024" lon="9.26157">
        <ele>2.8</ele>
        <time>2017-06-01T07:54:36Z</time>
      </trkpt>
      <trkpt lat="42.70248" lon="9.26116">
        <ele>2.73</ele>
        <time>2017-06-01T07:54:51Z</time>
      </trkpt>
      <trkpt lat="42.7026" lon="9.26072">
        <ele>2.87</ele>
        <time>2017-06-01T07:55:07Z</time>
      </trkpt>
      <trkpt lat="42.70271" lon="9.26036">
        <ele>3</ele>
        <time>2017-06-01T07:55:21Z</time>
      </trkpt>
      <trkpt lat="42.7029" lon="9.25988">
        <ele>2.87</ele>
        <time>2017-06-01T07:55:40Z</time>
      </trkpt>
      <trkpt lat="42.70309" lon="9.25947">
        <ele>2.99</ele>
        <time>2017-06-01T07:55:58Z</time>
      </trkpt>
      <trkpt lat="42.70327" lon="9.25907">
        <ele>2.95</ele>
        <time>2017-06-01T07:56:19Z</time>
      </trkpt>
      <trkpt lat="42.70341" lon="9.25895">
        <ele>2.66</ele>
        <time>2017-06-01T07:56:43Z</time>
      </trkpt>
      <trkpt lat="42.70356" lon="9.25891">
        <ele>2.8</ele>
        <time>2017-06-01T07:57:03Z</time>
      </trkpt>
      <trkpt lat="42.70358" lon="9.25889">
        <ele>2.74</ele>
        <time>2017-06-01T07:57:06Z</time>
      </trkpt>
      <trkpt lat="42.70377" lon="9.25868">
        <ele>2.8</ele>
        <time>2017-06-01T07:57:30Z</time>
      </trkpt>
      <trkpt lat="42.70379" lon="9.25864">
        <ele>2.73</ele>
        <time>2017-06-01T07:57:34Z</time>
      </trkpt>
      <trkpt lat="42.70381" lon="9.25861">
        <ele>2.64</ele>
        <time>2017-06-01T07:57:37Z</time>
      </trkpt>
      <trkpt lat="42.70395" lon="9.25852">
        <ele>2.62</ele>
        <time>2017-06-01T07:57:54Z</time>
      </trkpt>
      <trkpt lat="42.70412" lon="9.25844">
        <ele>2.64</ele>
        <time>2017-06-01T07:58:10Z</time>
      </trkpt>
      <trkpt lat="42.70434" lon="9.25828">
        <ele>2.87</ele>
        <time>2017-06-01T07:58:27Z</time>
      </trkpt>
      <trkpt lat="42.70465" lon="9.25812">
        <ele>2.66</ele>
        <time>2017-06-01T07:58:47Z</time>
      </trkpt>
      <trkpt lat="42.70496" lon="9.25799">
        <ele>2.53</ele>
        <time>2017-06-01T07:59:08Z</time>
      </trkpt>
      <trkpt lat="42.70523" lon="9.25795">
        <ele>2.49</ele>
        <time>2017-06-01T07:59:25Z</time>
      </trkpt>
      <trkpt lat="42.70554" lon="9.25786">
        <ele>2.87</ele>
        <time>2017-06-01T07:59:43Z</time>
      </trkpt>
      <trkpt lat="42.7058" lon="9.25765">
        <ele>2.77</ele>
        <time>2017-06-01T08:00:00Z</time>
      </trkpt>
      <trkpt lat="42.70608" lon="9.25746">
        <ele>2.77</ele>
        <time>2017-06-01T08:00:18Z</time>
      </trkpt>
      <trkpt lat="42.70635" lon="9.25736">
        <ele>2.37</ele>
        <time>2017-06-01T08:00:37Z</time>
      </trkpt>
      <trkpt lat="42.70663" lon="9.25724">
        <ele>2.56</ele>
        <time>2017-06-01T08:00:53Z</time>
      </trkpt>
      <trkpt lat="42.70692" lon="9.25706">
        <ele>2.57</ele>
        <time>2017-06-01T08:01:11Z</time>
      </trkpt>
      <trkpt lat="42.70722" lon="9.25674">
        <ele>2.55</ele>
        <time>2017-06-01T08:01:30Z</time>
      </trkpt>
      <trkpt lat="42.70758" lon="9.25656">
        <ele>2.44</ele>
        <time>2017-06-01T08:01:50Z</time>
      </trkpt>
      <trkpt lat="42.7079" lon="9.25652">
        <ele>2.36</ele>
        <time>2017-06-01T08:02:07Z</time>
      </trkpt>
      <trkpt lat="42.70818" lon="9.2565">
        <ele>2.29</ele>
        <time>2017-06-01T08:02:21Z</time>
      </trkpt>
      <trkpt lat="42.70848" lon="9.25649">
        <ele>2.3</ele>
        <time>2017-06-01T08:02:37Z</time>
      </trkpt>
      <trkpt lat="42.70874" lon="9.25651">
        <ele>2.41</ele>
        <time>2017-06-01T08:02:50Z</time>
      </trkpt>
      <trkpt lat="42.70904" lon="9.2563">
        <ele>2.45</ele>
        <time>2017-06-01T08:03:07Z</time>
      </trkpt>
      <trkpt lat="42.70937" lon="9.25607">
        <ele>2.12</ele>
        <time>2017-06-01T08:03:26Z</time>
      </trkpt>
      <trkpt lat="42.70964" lon="9.25592">
        <ele>2.24</ele>
        <time>2017-06-01T08:03:42Z</time>
      </trkpt>
      <trkpt lat="42.70989" lon="9.25585">
        <ele>2.05</ele>
        <time>2017-06-01T08:03:55Z</time>
      </trkpt>
      <trkpt lat="42.71022" lon="9.25581">
        <ele>2.1</ele>
        <time>2017-06-01T08:04:11Z</time>
      </trkpt>
      <trkpt lat="42.71046" lon="9.25585">
        <ele>2.01</ele>
        <time>2017-06-01T08:04:23Z</time>
      </trkpt>
      <trkpt lat="42.71078" lon="9.25596">
        <ele>1.89</ele>
        <time>2017-06-01T08:04:39Z</time>
      </trkpt>
      <trkpt lat="42.71106" lon="9.25604">
        <ele>2.02</ele>
        <time>2017-06-01T08:04:55Z</time>
      </trkpt>
      <trkpt lat="42.71112" lon="9.25611">
        <ele>1.98</ele>
        <time>2017-06-01T08:05:16Z</time>
      </trkpt>
      <trkpt lat="42.7112" lon="9.2562">
        <ele>2.04</ele>
        <time>2017-06-01T08:05:29Z</time>
      </trkpt>
      <trkpt lat="42.71142" lon="9.25621">
        <ele>2.31</ele>
        <time>2017-06-01T08:05:43Z</time>
      </trkpt>
      <trkpt lat="42.71161" lon="9.25617">
        <ele>2.42</ele>
        <time>2017-06-01T08:05:54Z</time>
      </trkpt>
      <trkpt lat="42.71184" lon="9.25618">
        <ele>2.39</ele>
        <time>2017-06-01T08:06:07Z</time>
      </trkpt>
      <trkpt lat="42.7121" lon="9.25618">
        <ele>2.26</ele>
        <time>2017-06-01T08:06:21Z</time>
      </trkpt>
      <trkpt lat="42.71235" lon="9.25619">
        <ele>2.37</ele>
        <time>2017-06-01T08:06:34Z</time>
      </trkpt>
      <trkpt lat="42.71259" lon="9.25621">
        <ele>2.29</ele>
        <time>2017-06-01T08:06:47Z</time>
      </trkpt>
      <trkpt lat="42.71283" lon="9.25633">
        <ele>2.15</ele>
        <time>2017-06-01T08:07:02Z</time>
      </trkpt>
      <trkpt lat="42.71318" lon="9.25653">
        <ele>2.07</ele>
        <time>2017-06-01T08:07:23Z</time>
      </trkpt>
      <trkpt lat="42.71348" lon="9.25661">
        <ele>2.02</ele>
        <time>2017-06-01T08:07:39Z</time>
      </trkpt>
      <trkpt lat="42.71373" lon="9.25674">
        <ele>2.11</ele>
        <time>2017-06-01T08:07:54Z</time>
      </trkpt>
      <trkpt lat="42.71397" lon="9.25679">
        <ele>2.09</ele>
        <time>2017-06-01T08:08:07Z</time>
      </trkpt>
      <trkpt lat="42.71423" lon="9.25685">
        <ele>2.01</ele>
        <time>2017-06-01T08:08:21Z</time>
      </trkpt>
      <trkpt lat="42.71437" lon="9.25698">
        <ele>1.95</ele>
        <time>2017-06-01T08:08:36Z</time>
      </trkpt>
      <trkpt lat="42.71443" lon="9.25706">
        <ele>2.28</ele>
        <time>2017-06-01T08:09:01Z</time>
      </trkpt>
      <trkpt lat="42.71455" lon="9.25722">
        <ele>2.25</ele>
        <time>2017-06-01T08:09:23Z</time>
      </trkpt>
      <trkpt lat="42.71467" lon="9.25728">
        <ele>2.5</ele>
        <time>2017-06-01T08:09:41Z</time>
      </trkpt>
      <trkpt lat="42.71482" lon="9.25739">
        <ele>2.23</ele>
        <time>2017-06-01T08:10:10Z</time>
      </trkpt>
      <trkpt lat="42.71504" lon="9.25737">
        <ele>2.11</ele>
        <time>2017-06-01T08:10:28Z</time>
      </trkpt>
      <trkpt lat="42.7152" lon="9.25735">
        <ele>1.77</ele>
        <time>2017-06-01T08:10:46Z</time>
      </trkpt>
      <trkpt lat="42.71533" lon="9.25736">
        <ele>1.81</ele>
        <time>2017-06-01T08:11:09Z</time>
      </trkpt>
      <trkpt lat="42.71544" lon="9.25731">
        <ele>1.95</ele>
        <time>2017-06-01T08:11:39Z</time>
      </trkpt>
      <trkpt lat="42.71566" lon="9.25718">
        <ele>1.57</ele>
        <time>2017-06-01T08:11:59Z</time>
      </trkpt>
      <trkpt lat="42.71585" lon="9.25698">
        <ele>1.79</ele>
        <time>2017-06-01T08:12:18Z</time>
      </trkpt>
      <trkpt lat="42.71598" lon="9.25684">
        <ele>1.63</ele>
        <time>2017-06-01T08:12:33Z</time>
      </trkpt>
      <trkpt lat="42.71603" lon="9.25676">
        <ele>1.57</ele>
        <time>2017-06-01T08:12:45Z</time>
      </trkpt>
      <trkpt lat="42.71613" lon="9.25664">
        <ele>1.42</ele>
        <time>2017-06-01T08:13:01Z</time>
      </trkpt>
      <trkpt lat="42.71615" lon="9.25675">
        <ele>1.48</ele>
        <time>2017-06-01T08:13:24Z</time>
      </trkpt>
      <trkpt lat="42.71613" lon="9.25676">
        <ele>1.39</ele>
        <time>2017-06-01T08:13:26Z</time>
      </trkpt>
      <trkpt lat="42.71588" lon="9.25688">
        <ele>1.29</ele>
        <time>2017-06-01T08:13:47Z</time>
      </trkpt>
      <trkpt lat="42.71564" lon="9.25707">
        <ele>1.34</ele>
        <time>2017-06-01T08:14:09Z</time>
      </trkpt>
      <trkpt lat="42.7155" lon="9.25716">
        <ele>1.15</ele>
        <time>2017-06-01T08:14:43Z</time>
      </trkpt>
      <trkpt lat="42.71542" lon="9.25723">
        <ele>1.2</ele>
        <time>2017-06-01T08:15:13Z</time>
      </trkpt>
      <trkpt lat="42.71538" lon="9.25733">
        <ele>1.34</ele>
        <time>2017-06-01T08:15:23Z</time>
      </trkpt>
      <trkpt lat="42.71537" lon="9.25744">
        <ele>1.34</ele>
        <time>2017-06-01T08:15:31Z</time>
      </trkpt>
      <trkpt lat="42.71544" lon="9.25759">
        <ele>1.54</ele>
        <time>2017-06-01T08:15:45Z</time>
      </trkpt>
      <trkpt lat="42.71562" lon="9.25757">
        <ele>1.53</ele>
        <time>2017-06-01T08:16:03Z</time>
      </trkpt>
      <trkpt lat="42.71565" lon="9.25756">
        <ele>1.66</ele>
        <time>2017-06-01T08:16:06Z</time>
      </trkpt>
      <trkpt lat="42.71593" lon="9.25743">
        <ele>1.46</ele>
        <time>2017-06-01T08:16:24Z</time>
      </trkpt>
      <trkpt lat="42.7162" lon="9.25739">
        <ele>1.31</ele>
        <time>2017-06-01T08:16:41Z</time>
      </trkpt>
      <trkpt lat="42.71646" lon="9.25744">
        <ele>1.31</ele>
        <time>2017-06-01T08:16:56Z</time>
      </trkpt>
      <trkpt lat="42.71682" lon="9.2575">
        <ele>1.17</ele>
        <time>2017-06-01T08:17:16Z</time>
      </trkpt>
      <trkpt lat="42.71717" lon="9.25761">
        <ele>0.92</ele>
        <time>2017-06-01T08:17:37Z</time>
      </trkpt>
      <trkpt lat="42.71743" lon="9.25773">
        <ele>0.83</ele>
        <time>2017-06-01T08:17:52Z</time>
      </trkpt>
      <trkpt lat="42.71762" lon="9.25794">
        <ele>0.92</ele>
        <time>2017-06-01T08:18:09Z</time>
      </trkpt>
      <trkpt lat="42.71777" lon="9.25806">
        <ele>1.11</ele>
        <time>2017-06-01T08:18:27Z</time>
      </trkpt>
      <trkpt lat="42.71798" lon="9.2579">
        <ele>1.19</ele>
        <time>2017-06-01T08:18:43Z</time>
      </trkpt>
      <trkpt lat="42.71807" lon="9.25781">
        <ele>1.21</ele>
        <time>2017-06-01T08:18:49Z</time>
      </trkpt>
      <trkpt lat="42.71826" lon="9.25759">
        <ele>1.08</ele>
        <time>2017-06-01T08:19:03Z</time>
      </trkpt>
      <trkpt lat="42.71846" lon="9.25727">
        <ele>1.25</ele>
        <time>2017-06-01T08:19:20Z</time>
      </trkpt>
      <trkpt lat="42.71863" lon="9.2569">
        <ele>1.09</ele>
        <time>2017-06-01T08:19:37Z</time>
      </trkpt>
      <trkpt lat="42.71871" lon="9.2566">
        <ele>1.21</ele>
        <time>2017-06-01T08:19:50Z</time>
      </trkpt>
      <trkpt lat="42.71875" lon="9.25628">
        <ele>1.31</ele>
        <time>2017-06-01T08:20:02Z</time>
      </trkpt>
      <trkpt lat="42.71881" lon="9.25597">
        <ele>1.19</ele>
        <time>2017-06-01T08:20:14Z</time>
      </trkpt>
      <trkpt lat="42.71885" lon="9.25569">
        <ele>1.14</ele>
        <time>2017-06-01T08:20:25Z</time>
      </trkpt>
      <trkpt lat="42.71886" lon="9.25535">
        <ele>1.25</ele>
        <time>2017-06-01T08:20:38Z</time>
      </trkpt>
      <trkpt lat="42.71887" lon="9.25496">
        <ele>1.07</ele>
        <time>2017-06-01T08:20:52Z</time>
      </trkpt>
      <trkpt lat="42.71885" lon="9.25466">
        <ele>1.28</ele>
        <time>2017-06-01T08:21:03Z</time>
      </trkpt>
      <trkpt lat="42.71877" lon="9.25433">
        <ele>1.29</ele>
        <time>2017-06-01T08:21:16Z</time>
      </trkpt>
      <trkpt lat="42.71872" lon="9.25399">
        <ele>1.12</ele>
        <time>2017-06-01T08:21:30Z</time>
      </trkpt>
      <trkpt lat="42.71871" lon="9.25366">
        <ele>1.22</ele>
        <time>2017-06-01T08:21:43Z</time>
      </trkpt>
      <trkpt lat="42.71872" lon="9.2533">
        <ele>1.21</ele>
        <time>2017-06-01T08:21:57Z</time>
      </trkpt>
      <trkpt lat="42.7188" lon="9.25285">
        <ele>1.17</ele>
        <time>2017-06-01T08:22:14Z</time>
      </trkpt>
      <trkpt lat="42.71892" lon="9.25252">
        <ele>1.33</ele>
        <time>2017-06-01T08:22:28Z</time>
      </trkpt>
      <trkpt lat="42.71901" lon="9.2522">
        <ele>1.15</ele>
        <time>2017-06-01T08:22:41Z</time>
      </trkpt>
      <trkpt lat="42.71914" lon="9.25188">
        <ele>1.1</ele>
        <time>2017-06-01T08:22:55Z</time>
      </trkpt>
      <trkpt lat="42.71928" lon="9.25162">
        <ele>1.02</ele>
        <time>2017-06-01T08:23:08Z</time>
      </trkpt>
      <trkpt lat="42.71947" lon="9.25127">
        <ele>1.07</ele>
        <time>2017-06-01T08:23:25Z</time>
      </trkpt>
      <trkpt lat="42.71963" lon="9.25094">
        <ele>0.93</ele>
        <time>2017-06-01T08:23:39Z</time>
      </trkpt>
      <trkpt lat="42.71976" lon="9.25065">
        <ele>1.03</ele>
        <time>2017-06-01T08:23:52Z</time>
      </trkpt>
      <trkpt lat="42.7199" lon="9.25038">
        <ele>0.77</ele>
        <time>2017-06-01T08:24:04Z</time>
      </trkpt>
      <trkpt lat="42.72" lon="9.25024">
        <ele>0.75</ele>
        <time>2017-06-01T08:24:11Z</time>
      </trkpt>
      <trkpt lat="42.72019" lon="9.25">
        <ele>0.61</ele>
        <time>2017-06-01T08:24:24Z</time>
      </trkpt>
      <trkpt lat="42.72036" lon="9.24971">
        <ele>0.54</ele>
        <time>2017-06-01T08:24:38Z</time>
      </trkpt>
      <trkpt lat="42.72049" lon="9.24942">
        <ele>0.42</ele>
        <time>2017-06-01T08:24:50Z</time>
      </trkpt>
      <trkpt lat="42.72058" lon="9.24913">
        <ele>0.68</ele>
        <time>2017-06-01T08:25:01Z</time>
      </trkpt>
      <trkpt lat="42.7207" lon="9.24877">
        <ele>0.55</ele>
        <time>2017-06-01T08:25:15Z</time>
      </trkpt>
      <trkpt lat="42.72084" lon="9.24843">
        <ele>0.41</ele>
        <time>2017-06-01T08:25:31Z</time>
      </trkpt>
      <trkpt lat="42.72088" lon="9.24835">
        <ele>0.13</ele>
        <time>2017-06-01T08:25:50Z</time>
      </trkpt>
      <trkpt lat="42.72098" lon="9.24827">
        <ele>0.13</ele>
        <time>2017-06-01T08:26:06Z</time>
      </trkpt>
      <trkpt lat="42.7211" lon="9.24808">
        <ele>0.28</ele>
        <time>2017-06-01T08:26:20Z</time>
      </trkpt>
      <trkpt lat="42.72123" lon="9.24781">
        <ele>0.43</ele>
        <time>2017-06-01T08:26:36Z</time>
      </trkpt>
      <trkpt lat="42.72137" lon="9.24753">
        <ele>0.5</ele>
        <time>2017-06-01T08:26:50Z</time>
      </trkpt>
      <trkpt lat="42.72146" lon="9.24729">
        <ele>0.42</ele>
        <time>2017-06-01T08:27:02Z</time>
      </trkpt>
      <trkpt lat="42.72148" lon="9.24724">
        <ele>0.39</ele>
        <time>2017-06-01T08:27:05Z</time>
      </trkpt>
      <trkpt lat="42.72155" lon="9.24709">
        <ele>0.25</ele>
        <time>2017-06-01T08:27:14Z</time>
      </trkpt>
      <trkpt lat="42.7216" lon="9.24684">
        <ele>0.3</ele>
        <time>2017-06-01T08:27:27Z</time>
      </trkpt>
      <trkpt lat="42.72159" lon="9.24676">
        <ele>0.26</ele>
        <time>2017-06-01T08:27:32Z</time>
      </trkpt>
      <trkpt lat="42.72155" lon="9.24647">
        <ele>0.05</ele>
        <time>2017-06-01T08:27:45Z</time>
      </trkpt>
      <trkpt lat="42.72142" lon="9.2461">
        <ele>0.14</ele>
        <time>2017-06-01T08:27:59Z</time>
      </trkpt>
      <trkpt lat="42.72121" lon="9.24582">
        <ele>0.05</ele>
        <time>2017-06-01T08:28:16Z</time>
      </trkpt>
      <trkpt lat="42.72098" lon="9.24557">
        <ele>-0.15</ele>
        <time>2017-06-01T08:28:31Z</time>
      </trkpt>
      <trkpt lat="42.72075" lon="9.24543">
        <ele>-0.16</ele>
        <time>2017-06-01T08:28:51Z</time>
      </trkpt>
      <trkpt lat="42.72049" lon="9.24533">
        <ele>-0.23</ele>
        <time>2017-06-01T08:29:08Z</time>
      </trkpt>
      <trkpt lat="42.72025" lon="9.24527">
        <ele>-0.28</ele>
        <time>2017-06-01T08:29:21Z</time>
      </trkpt>
      <trkpt lat="42.72" lon="9.24512">
        <ele>-0.09</ele>
        <time>2017-06-01T08:29:36Z</time>
      </trkpt>
      <trkpt lat="42.71974" lon="9.24489">
        <ele>-0.36</ele>
        <time>2017-06-01T08:29:52Z</time>
      </trkpt>
      <trkpt lat="42.71957" lon="9.24464">
        <ele>-0.34</ele>
        <time>2017-06-01T08:30:05Z</time>
      </trkpt>
      <trkpt lat="42.71955" lon="9.24459">
        <ele>-0.4</ele>
        <time>2017-06-01T08:30:07Z</time>
      </trkpt>
      <trkpt lat="42.71951" lon="9.24441">
        <ele>-0.56</ele>
        <time>2017-06-01T08:30:16Z</time>
      </trkpt>
      <trkpt lat="42.71945" lon="9.24423">
        <ele>-0.36</ele>
        <time>2017-06-01T08:30:32Z</time>
      </trkpt>
      <trkpt lat="42.71944" lon="9.24417">
        <ele>1</ele>
        <time>2017-06-01T08:30:56Z</time>
      </trkpt>
      <trkpt lat="42.71944" lon="9.24413">
        <ele>-0.29</ele>
        <time>2017-06-01T08:31:27Z</time>
      </trkpt>
      <trkpt lat="42.71944" lon="9.24413">
        <ele>-0.25</ele>
        <time>2017-06-01T08:32:00Z</time>
      </trkpt>
      <trkpt lat="42.71942" lon="9.24413">
        <ele>-0.23</ele>
        <time>2017-06-01T08:32:32Z</time>
      </trkpt>
      <trkpt lat="42.71938" lon="9.24413">
        <ele>-0.06</ele>
        <time>2017-06-01T08:33:02Z</time>
      </trkpt>
      <trkpt lat="42.7194" lon="9.24401">
        <ele>-0.22</ele>
        <time>2017-06-01T08:33:27Z</time>
      </trkpt>
      <trkpt lat="42.71951" lon="9.24365">
        <ele>0.04</ele>
        <time>2017-06-01T08:33:48Z</time>
      </trkpt>
      <trkpt lat="42.71953" lon="9.24332">
        <ele>-0.22</ele>
        <time>2017-06-01T08:34:02Z</time>
      </trkpt>
      <trkpt lat="42.71953" lon="9.24291">
        <ele>0.13</ele>
        <time>2017-06-01T08:34:17Z</time>
      </trkpt>
      <trkpt lat="42.71949" lon="9.2425">
        <ele>-0.13</ele>
        <time>2017-06-01T08:34:32Z</time>
      </trkpt>
      <trkpt lat="42.71948" lon="9.24214">
        <ele>-0.05</ele>
        <time>2017-06-01T08:34:45Z</time>
      </trkpt>
      <trkpt lat="42.71952" lon="9.2419">
        <ele>-0.08</ele>
        <time>2017-06-01T08:34:54Z</time>
      </trkpt>
      <trkpt lat="42.71959" lon="9.24143">
        <ele>0.22</ele>
        <time>2017-06-01T08:35:12Z</time>
      </trkpt>
      <trkpt lat="42.71978" lon="9.24104">
        <ele>0.04</ele>
        <time>2017-06-01T08:35:28Z</time>
      </trkpt>
      <trkpt lat="42.71994" lon="9.24056">
        <ele>0.03</ele>
        <time>2017-06-01T08:35:46Z</time>
      </trkpt>
      <trkpt lat="42.72009" lon="9.24017">
        <ele>0.22</ele>
        <time>2017-06-01T08:36:00Z</time>
      </trkpt>
      <trkpt lat="42.72018" lon="9.23972">
        <ele>0.25</ele>
        <time>2017-06-01T08:36:17Z</time>
      </trkpt>
      <trkpt lat="42.72021" lon="9.23936">
        <ele>0.37</ele>
        <time>2017-06-01T08:36:33Z</time>
      </trkpt>
      <trkpt lat="42.72023" lon="9.23903">
        <ele>0.64</ele>
        <time>2017-06-01T08:36:45Z</time>
      </trkpt>
      <trkpt lat="42.72029" lon="9.23867">
        <ele>0.48</ele>
        <time>2017-06-01T08:36:58Z</time>
      </trkpt>
      <trkpt lat="42.72038" lon="9.23823">
        <ele>0.47</ele>
        <time>2017-06-01T08:37:14Z</time>
      </trkpt>
      <trkpt lat="42.72042" lon="9.23778">
        <ele>0.58</ele>
        <time>2017-06-01T08:37:30Z</time>
      </trkpt>
      <trkpt lat="42.72039" lon="9.2374">
        <ele>0.69</ele>
        <time>2017-06-01T08:37:44Z</time>
      </trkpt>
      <trkpt lat="42.72038" lon="9.23694">
        <ele>0.78</ele>
        <time>2017-06-01T08:38:00Z</time>
      </trkpt>
      <trkpt lat="42.72038" lon="9.23655">
        <ele>0.83</ele>
        <time>2017-06-01T08:38:13Z</time>
      </trkpt>
      <trkpt lat="42.7204" lon="9.23619">
        <ele>0.97</ele>
        <time>2017-06-01T08:38:26Z</time>
      </trkpt>
      <trkpt lat="42.72038" lon="9.23588">
        <ele>0.92</ele>
        <time>2017-06-01T08:38:37Z</time>
      </trkpt>
      <trkpt lat="42.72038" lon="9.23554">
        <ele>1.06</ele>
        <time>2017-06-01T08:38:52Z</time>
      </trkpt>
      <trkpt lat="42.72041" lon="9.23526">
        <ele>1.18</ele>
        <time>2017-06-01T08:39:06Z</time>
      </trkpt>
      <trkpt lat="42.7204" lon="9.23515">
        <ele>1.3</ele>
        <time>2017-06-01T08:39:14Z</time>
      </trkpt>
      <trkpt lat="42.72039" lon="9.23511">
        <ele>1.33</ele>
        <time>2017-06-01T08:39:17Z</time>
      </trkpt>
      <trkpt lat="42.72038" lon="9.23509">
        <ele>1.36</ele>
        <time>2017-06-01T08:39:19Z</time>
      </trkpt>
      <trkpt lat="42.72038" lon="9.23506">
        <ele>1.34</ele>
        <time>2017-06-01T08:39:21Z</time>
      </trkpt>
      <trkpt lat="42.7203" lon="9.23492">
        <ele>1.01</ele>
        <time>2017-06-01T08:39:32Z</time>
      </trkpt>
      <trkpt lat="42.72022" lon="9.23474">
        <ele>1.16</ele>
        <time>2017-06-01T08:39:46Z</time>
      </trkpt>
      <trkpt lat="42.72007" lon="9.23465">
        <ele>1.07</ele>
        <time>2017-06-01T08:40:00Z</time>
      </trkpt>
      <trkpt lat="42.72003" lon="9.2346">
        <ele>1.1</ele>
        <time>2017-06-01T08:40:06Z</time>
      </trkpt>
      <trkpt lat="42.71998" lon="9.23442">
        <ele>1.01</ele>
        <time>2017-06-01T08:40:19Z</time>
      </trkpt>
      <trkpt lat="42.71999" lon="9.23424">
        <ele>1.36</ele>
        <time>2017-06-01T08:40:29Z</time>
      </trkpt>
      <trkpt lat="42.71998" lon="9.23406">
        <ele>1.39</ele>
        <time>2017-06-01T08:40:38Z</time>
      </trkpt>
      <trkpt lat="42.72005" lon="9.23382">
        <ele>1.43</ele>
        <time>2017-06-01T08:40:53Z</time>
      </trkpt>
      <trkpt lat="42.72005" lon="9.2338">
        <ele>1.44</ele>
        <time>2017-06-01T08:40:54Z</time>
      </trkpt>
      <trkpt lat="42.72001" lon="9.23364">
        <ele>1.49</ele>
        <time>2017-06-01T08:41:11Z</time>
      </trkpt>
      <trkpt lat="42.71996" lon="9.23359">
        <ele>1.67</ele>
        <time>2017-06-01T08:41:31Z</time>
      </trkpt>
      <trkpt lat="42.71994" lon="9.23361">
        <ele>1.97</ele>
        <time>2017-06-01T08:41:49Z</time>
      </trkpt>
      <trkpt lat="42.71994" lon="9.23362">
        <ele>1.85</ele>
        <time>2017-06-01T08:42:10Z</time>
      </trkpt>
      <trkpt lat="42.71994" lon="9.23362">
        <ele>2.43</ele>
        <time>2017-06-01T08:42:27Z</time>
      </trkpt>
      <trkpt lat="42.71993" lon="9.2336">
        <ele>2.36</ele>
        <time>2017-06-01T08:42:46Z</time>
      </trkpt>
      <trkpt lat="42.71993" lon="9.23361">
        <ele>2.33</ele>
        <time>2017-06-01T08:43:09Z</time>
      </trkpt>
      <trkpt lat="42.71992" lon="9.23361">
        <ele>2.62</ele>
        <time>2017-06-01T08:43:27Z</time>
      </trkpt>
      <trkpt lat="42.71992" lon="9.23359">
        <ele>2.24</ele>
        <time>2017-06-01T08:43:44Z</time>
      </trkpt>
      <trkpt lat="42.71992" lon="9.23359">
        <ele>1.95</ele>
        <time>2017-06-01T08:44:01Z</time>
      </trkpt>
      <trkpt lat="42.71992" lon="9.23359">
        <ele>1.84</ele>
        <time>2017-06-01T08:44:18Z</time>
      </trkpt>
      <trkpt lat="42.71993" lon="9.23359">
        <ele>1.92</ele>
        <time>2017-06-01T08:44:35Z</time>
      </trkpt>
      <trkpt lat="42.71993" lon="9.23359">
        <ele>1.81</ele>
        <time>2017-06-01T08:44:51Z</time>
      </trkpt>
      <trkpt lat="42.71994" lon="9.23359">
        <ele>1.83</ele>
        <time>2017-06-01T08:45:09Z</time>
      </trkpt>
      <trkpt lat="42.71994" lon="9.23359">
        <ele>1.91</ele>
        <time>2017-06-01T08:45:27Z</time>
      </trkpt>
      <trkpt lat="42.71994" lon="9.23358">
        <ele>1.89</ele>
        <time>2017-06-01T08:45:46Z</time>
      </trkpt>
      <trkpt lat="42.71994" lon="9.23358">
        <ele>1.9</ele>
        <time>2017-06-01T08:46:04Z</time>
      </trkpt>
      <trkpt lat="42.71994" lon="9.23358">
        <ele>2.07</ele>
        <time>2017-06-01T08:46:20Z</time>
      </trkpt>
      <trkpt lat="42.71994" lon="9.23358">
        <ele>2.08</ele>
        <time>2017-06-01T08:46:37Z</time>
      </trkpt>
      <trkpt lat="42.71994" lon="9.23358">
        <ele>1.92</ele>
        <time>2017-06-01T08:46:56Z</time>
      </trkpt>
      <trkpt lat="42.71994" lon="9.23358">
        <ele>2.02</ele>
        <time>2017-06-01T08:47:13Z</time>
      </trkpt>
      <trkpt lat="42.71994" lon="9.23358">
        <ele>2.1</ele>
        <time>2017-06-01T08:47:33Z</time>
      </trkpt>
      <trkpt lat="42.71994" lon="9.23357">
        <ele>2.24</ele>
        <time>2017-06-01T08:47:51Z</time>
      </trkpt>
      <trkpt lat="42.71994" lon="9.23358">
        <ele>2.32</ele>
        <time>2017-06-01T08:48:08Z</time>
      </trkpt>
      <trkpt lat="42.71994" lon="9.23357">
        <ele>2.16</ele>
        <time>2017-06-01T08:48:27Z</time>
      </trkpt>
      <trkpt lat="42.71994" lon="9.23357">
        <ele>2.52</ele>
        <time>2017-06-01T08:48:45Z</time>
      </trkpt>
      <trkpt lat="42.71994" lon="9.23358">
        <ele>2.23</ele>
        <time>2017-06-01T08:49:03Z</time>
      </trkpt>
      <trkpt lat="42.71994" lon="9.23358">
        <ele>2.34</ele>
        <time>2017-06-01T08:49:22Z</time>
      </trkpt>
      <trkpt lat="42.71994" lon="9.23358">
        <ele>2.42</ele>
        <time>2017-06-01T08:49:40Z</time>
      </trkpt>
      <trkpt lat="42.71994" lon="9.23358">
        <ele>2.42</ele>
        <time>2017-06-01T08:49:57Z</time>
      </trkpt>
      <trkpt lat="42.71994" lon="9.23358">
        <ele>2.54</ele>
        <time>2017-06-01T08:50:15Z</time>
      </trkpt>
      <trkpt lat="42.71994" lon="9.23358">
        <ele>2.68</ele>
        <time>2017-06-01T08:50:33Z</time>
      </trkpt>
      <trkpt lat="42.71994" lon="9.23358">
        <ele>2.57</ele>
        <time>2017-06-01T08:50:52Z</time>
      </trkpt>
      <trkpt lat="42.71994" lon="9.23358">
        <ele>2.48</ele>
        <time>2017-06-01T08:51:11Z</time>
      </trkpt>
      <trkpt lat="42.71994" lon="9.23358">
        <ele>2.7</ele>
        <time>2017-06-01T08:51:30Z</time>
      </trkpt>
      <trkpt lat="42.71994" lon="9.23358">
        <ele>2.5</ele>
        <time>2017-06-01T08:51:48Z</time>
      </trkpt>
      <trkpt lat="42.71994" lon="9.23358">
        <ele>2.52</ele>
        <time>2017-06-01T08:52:06Z</time>
      </trkpt>
      <trkpt lat="42.71994" lon="9.23358">
        <ele>2.76</ele>
        <time>2017-06-01T08:52:24Z</time>
      </trkpt>
      <trkpt lat="42.71994" lon="9.23358">
        <ele>2.68</ele>
        <time>2017-06-01T08:52:43Z</time>
      </trkpt>
      <trkpt lat="42.71994" lon="9.23358">
        <ele>2.42</ele>
        <time>2017-06-01T08:53:02Z</time>
      </trkpt>
      <trkpt lat="42.71994" lon="9.23358">
        <ele>2.35</ele>
        <time>2017-06-01T08:53:21Z</time>
      </trkpt>
      <trkpt lat="42.71994" lon="9.23358">
        <ele>2.46</ele>
        <time>2017-06-01T08:53:40Z</time>
      </trkpt>
      <trkpt lat="42.71994" lon="9.23358">
        <ele>2.5</ele>
        <time>2017-06-01T08:53:56Z</time>
      </trkpt>
      <trkpt lat="42.71993" lon="9.23358">
        <ele>2.53</ele>
        <time>2017-06-01T08:54:13Z</time>
      </trkpt>
      <trkpt lat="42.71994" lon="9.23359">
        <ele>2.72</ele>
        <time>2017-06-01T08:54:34Z</time>
      </trkpt>
      <trkpt lat="42.71994" lon="9.23359">
        <ele>2.6</ele>
        <time>2017-06-01T08:54:54Z</time>
      </trkpt>
      <trkpt lat="42.71993" lon="9.23359">
        <ele>2.48</ele>
        <time>2017-06-01T08:55:17Z</time>
      </trkpt>
      <trkpt lat="42.71993" lon="9.23359">
        <ele>2.63</ele>
        <time>2017-06-01T08:55:41Z</time>
      </trkpt>
      <trkpt lat="42.71994" lon="9.23358">
        <ele>2.67</ele>
        <time>2017-06-01T08:56:00Z</time>
      </trkpt>
      <trkpt lat="42.71994" lon="9.23358">
        <ele>2.64</ele>
        <time>2017-06-01T08:56:20Z</time>
      </trkpt>
      <trkpt lat="42.71994" lon="9.23358">
        <ele>2.48</ele>
        <time>2017-06-01T08:56:39Z</time>
      </trkpt>
      <trkpt lat="42.71994" lon="9.23358">
        <ele>2.54</ele>
        <time>2017-06-01T08:56:58Z</time>
      </trkpt>
      <trkpt lat="42.71994" lon="9.23358">
        <ele>2.75</ele>
        <time>2017-06-01T08:57:17Z</time>
      </trkpt>
      <trkpt lat="42.71994" lon="9.23358">
        <ele>2.71</ele>
        <time>2017-06-01T08:57:36Z</time>
      </trkpt>
      <trkpt lat="42.71995" lon="9.23358">
        <ele>2.6</ele>
        <time>2017-06-01T08:57:55Z</time>
      </trkpt>
      <trkpt lat="42.71995" lon="9.23357">
        <ele>2.52</ele>
        <time>2017-06-01T08:58:15Z</time>
      </trkpt>
      <trkpt lat="42.71995" lon="9.23357">
        <ele>2.56</ele>
        <time>2017-06-01T08:58:36Z</time>
      </trkpt>
      <trkpt lat="42.71995" lon="9.23358">
        <ele>2.6</ele>
        <time>2017-06-01T08:58:55Z</time>
      </trkpt>
      <trkpt lat="42.71995" lon="9.23358">
        <ele>2.53</ele>
        <time>2017-06-01T08:59:15Z</time>
      </trkpt>
      <trkpt lat="42.71995" lon="9.23358">
        <ele>2.61</ele>
        <time>2017-06-01T08:59:35Z</time>
      </trkpt>
      <trkpt lat="42.71993" lon="9.23358">
        <ele>2.57</ele>
        <time>2017-06-01T09:00:20Z</time>
      </trkpt>
      <trkpt lat="42.71993" lon="9.23357">
        <ele>2.49</ele>
        <time>2017-06-01T09:00:45Z</time>
      </trkpt>
      <trkpt lat="42.71993" lon="9.23356">
        <ele>2.48</ele>
        <time>2017-06-01T09:01:18Z</time>
      </trkpt>
      <trkpt lat="42.71993" lon="9.23356">
        <ele>2.37</ele>
        <time>2017-06-01T09:01:46Z</time>
      </trkpt>
      <trkpt lat="42.71993" lon="9.23356">
        <ele>2.32</ele>
        <time>2017-06-01T09:02:14Z</time>
      </trkpt>
      <trkpt lat="42.71993" lon="9.23356">
        <ele>2.28</ele>
        <time>2017-06-01T09:02:46Z</time>
      </trkpt>
      <trkpt lat="42.71993" lon="9.23356">
        <ele>2.31</ele>
        <time>2017-06-01T09:03:17Z</time>
      </trkpt>
      <trkpt lat="42.71993" lon="9.23356">
        <ele>2.19</ele>
        <time>2017-06-01T09:03:47Z</time>
      </trkpt>
      <trkpt lat="42.71993" lon="9.23357">
        <ele>2.17</ele>
        <time>2017-06-01T09:04:16Z</time>
      </trkpt>
      <trkpt lat="42.71993" lon="9.23357">
        <ele>2.01</ele>
        <time>2017-06-01T09:04:48Z</time>
      </trkpt>
      <trkpt lat="42.71993" lon="9.23357">
        <ele>1.89</ele>
        <time>2017-06-01T09:05:19Z</time>
      </trkpt>
      <trkpt lat="42.71993" lon="9.23356">
        <ele>1.8</ele>
        <time>2017-06-01T09:05:52Z</time>
      </trkpt>
      <trkpt lat="42.71993" lon="9.23356">
        <ele>1.83</ele>
        <time>2017-06-01T09:06:24Z</time>
      </trkpt>
      <trkpt lat="42.71992" lon="9.23358">
        <ele>1.85</ele>
        <time>2017-06-01T09:06:55Z</time>
      </trkpt>
      <trkpt lat="42.71993" lon="9.23358">
        <ele>2.03</ele>
        <time>2017-06-01T09:07:21Z</time>
      </trkpt>
      <trkpt lat="42.71992" lon="9.23357">
        <ele>1.75</ele>
        <time>2017-06-01T09:07:43Z</time>
      </trkpt>
      <trkpt lat="42.71992" lon="9.23359">
        <ele>3.03</ele>
        <time>2017-06-01T09:08:07Z</time>
      </trkpt>
      <trkpt lat="42.71992" lon="9.23359">
        <ele>2.92</ele>
        <time>2017-06-01T09:08:36Z</time>
      </trkpt>
      <trkpt lat="42.71994" lon="9.2336">
        <ele>2.14</ele>
        <time>2017-06-01T09:09:02Z</time>
      </trkpt>
      <trkpt lat="42.71995" lon="9.23359">
        <ele>2.09</ele>
        <time>2017-06-01T09:09:26Z</time>
      </trkpt>
      <trkpt lat="42.71995" lon="9.23358">
        <ele>1.79</ele>
        <time>2017-06-01T09:09:48Z</time>
      </trkpt>
      <trkpt lat="42.71994" lon="9.23357">
        <ele>1.93</ele>
        <time>2017-06-01T09:10:15Z</time>
      </trkpt>
      <trkpt lat="42.71994" lon="9.23358">
        <ele>2.23</ele>
        <time>2017-06-01T09:10:51Z</time>
      </trkpt>
      <trkpt lat="42.71994" lon="9.23357">
        <ele>1.95</ele>
        <time>2017-06-01T09:11:18Z</time>
      </trkpt>
      <trkpt lat="42.71998" lon="9.23358">
        <ele>2.17</ele>
        <time>2017-06-01T09:11:48Z</time>
      </trkpt>
      <trkpt lat="42.71995" lon="9.23359">
        <ele>2.39</ele>
        <time>2017-06-01T09:12:35Z</time>
      </trkpt>
      <trkpt lat="42.71994" lon="9.23361">
        <ele>2.42</ele>
        <time>2017-06-01T09:13:14Z</time>
      </trkpt>
      <trkpt lat="42.71994" lon="9.2336">
        <ele>2.72</ele>
        <time>2017-06-01T09:14:00Z</time>
      </trkpt>
      <trkpt lat="42.71994" lon="9.2336">
        <ele>2.75</ele>
        <time>2017-06-01T09:14:47Z</time>
      </trkpt>
      <trkpt lat="42.71994" lon="9.2336">
        <ele>2.86</ele>
        <time>2017-06-01T09:15:33Z</time>
      </trkpt>
      <trkpt lat="42.71993" lon="9.2336">
        <ele>3.23</ele>
        <time>2017-06-01T09:16:19Z</time>
      </trkpt>
      <trkpt lat="42.71993" lon="9.2336">
        <ele>3.88</ele>
        <time>2017-06-01T09:16:43Z</time>
      </trkpt>
      <trkpt lat="42.71993" lon="9.2336">
        <ele>3.84</ele>
        <time>2017-06-01T09:17:01Z</time>
      </trkpt>
      <trkpt lat="42.71991" lon="9.2336">
        <ele>4.23</ele>
        <time>2017-06-01T09:17:27Z</time>
      </trkpt>
      <trkpt lat="42.71993" lon="9.23361">
        <ele>4.35</ele>
        <time>2017-06-01T09:17:44Z</time>
      </trkpt>
      <trkpt lat="42.71994" lon="9.23359">
        <ele>4.43</ele>
        <time>2017-06-01T09:17:57Z</time>
      </trkpt>
      <trkpt lat="42.71999" lon="9.23362">
        <ele>3.86</ele>
        <time>2017-06-01T09:18:15Z</time>
      </trkpt>
      <trkpt lat="42.72006" lon="9.23363">
        <ele>3.31</ele>
        <time>2017-06-01T09:18:31Z</time>
      </trkpt>
      <trkpt lat="42.72008" lon="9.23361">
        <ele>2.97</ele>
        <time>2017-06-01T09:18:49Z</time>
      </trkpt>
      <trkpt lat="42.72012" lon="9.23366">
        <ele>2.93</ele>
        <time>2017-06-01T09:19:05Z</time>
      </trkpt>
      <trkpt lat="42.72022" lon="9.23398">
        <ele>2.8</ele>
        <time>2017-06-01T09:19:22Z</time>
      </trkpt>
      <trkpt lat="42.72028" lon="9.23437">
        <ele>2.41</ele>
        <time>2017-06-01T09:19:37Z</time>
      </trkpt>
      <trkpt lat="42.72039" lon="9.23479">
        <ele>2.77</ele>
        <time>2017-06-01T09:19:54Z</time>
      </trkpt>
      <trkpt lat="42.72067" lon="9.23479">
        <ele>3.05</ele>
        <time>2017-06-01T09:20:11Z</time>
      </trkpt>
      <trkpt lat="42.72096" lon="9.23442">
        <ele>3.18</ele>
        <time>2017-06-01T09:20:30Z</time>
      </trkpt>
      <trkpt lat="42.72126" lon="9.23413">
        <ele>3.17</ele>
        <time>2017-06-01T09:20:48Z</time>
      </trkpt>
      <trkpt lat="42.72153" lon="9.23379">
        <ele>3.29</ele>
        <time>2017-06-01T09:21:05Z</time>
      </trkpt>
      <trkpt lat="42.72179" lon="9.23354">
        <ele>3.13</ele>
        <time>2017-06-01T09:21:19Z</time>
      </trkpt>
      <trkpt lat="42.72217" lon="9.23329">
        <ele>3.03</ele>
        <time>2017-06-01T09:21:40Z</time>
      </trkpt>
      <trkpt lat="42.72263" lon="9.23328">
        <ele>2.91</ele>
        <time>2017-06-01T09:22:03Z</time>
      </trkpt>
      <trkpt lat="42.72304" lon="9.2334">
        <ele>2.82</ele>
        <time>2017-06-01T09:22:24Z</time>
      </trkpt>
      <trkpt lat="42.72338" lon="9.23341">
        <ele>2.73</ele>
        <time>2017-06-01T09:22:44Z</time>
      </trkpt>
      <trkpt lat="42.72367" lon="9.2334">
        <ele>2.86</ele>
        <time>2017-06-01T09:23:03Z</time>
      </trkpt>
      <trkpt lat="42.72399" lon="9.23316">
        <ele>3.02</ele>
        <time>2017-06-01T09:23:24Z</time>
      </trkpt>
      <trkpt lat="42.72427" lon="9.23294">
        <ele>2.92</ele>
        <time>2017-06-01T09:23:41Z</time>
      </trkpt>
      <trkpt lat="42.72454" lon="9.23265">
        <ele>2.9</ele>
        <time>2017-06-01T09:23:57Z</time>
      </trkpt>
      <trkpt lat="42.72472" lon="9.23232">
        <ele>3.11</ele>
        <time>2017-06-01T09:24:12Z</time>
      </trkpt>
      <trkpt lat="42.72496" lon="9.23204">
        <ele>3.05</ele>
        <time>2017-06-01T09:24:28Z</time>
      </trkpt>
      <trkpt lat="42.72526" lon="9.2318">
        <ele>3.2</ele>
        <time>2017-06-01T09:24:45Z</time>
      </trkpt>
      <trkpt lat="42.72547" lon="9.23158">
        <ele>2.98</ele>
        <time>2017-06-01T09:25:00Z</time>
      </trkpt>
      <trkpt lat="42.7256" lon="9.23118">
        <ele>3.15</ele>
        <time>2017-06-01T09:25:16Z</time>
      </trkpt>
      <trkpt lat="42.72576" lon="9.23085">
        <ele>3.06</ele>
        <time>2017-06-01T09:25:31Z</time>
      </trkpt>
      <trkpt lat="42.72594" lon="9.23061">
        <ele>3.2</ele>
        <time>2017-06-01T09:25:44Z</time>
      </trkpt>
      <trkpt lat="42.7262" lon="9.23038">
        <ele>2.83</ele>
        <time>2017-06-01T09:26:00Z</time>
      </trkpt>
      <trkpt lat="42.72646" lon="9.23022">
        <ele>2.96</ele>
        <time>2017-06-01T09:26:15Z</time>
      </trkpt>
      <trkpt lat="42.72674" lon="9.22999">
        <ele>3.2</ele>
        <time>2017-06-01T09:26:32Z</time>
      </trkpt>
      <trkpt lat="42.72711" lon="9.22978">
        <ele>2.89</ele>
        <time>2017-06-01T09:26:51Z</time>
      </trkpt>
      <trkpt lat="42.72747" lon="9.2296">
        <ele>2.98</ele>
        <time>2017-06-01T09:27:09Z</time>
      </trkpt>
      <trkpt lat="42.72772" lon="9.22939">
        <ele>2.98</ele>
        <time>2017-06-01T09:27:25Z</time>
      </trkpt>
      <trkpt lat="42.72793" lon="9.22912">
        <ele>2.96</ele>
        <time>2017-06-01T09:27:39Z</time>
      </trkpt>
      <trkpt lat="42.72819" lon="9.22885">
        <ele>2.87</ele>
        <time>2017-06-01T09:27:55Z</time>
      </trkpt>
      <trkpt lat="42.72851" lon="9.22862">
        <ele>2.83</ele>
        <time>2017-06-01T09:28:13Z</time>
      </trkpt>
      <trkpt lat="42.72878" lon="9.22842">
        <ele>2.84</ele>
        <time>2017-06-01T09:28:28Z</time>
      </trkpt>
      <trkpt lat="42.72908" lon="9.22815">
        <ele>2.78</ele>
        <time>2017-06-01T09:28:46Z</time>
      </trkpt>
      <trkpt lat="42.72927" lon="9.22789">
        <ele>2.92</ele>
        <time>2017-06-01T09:29:00Z</time>
      </trkpt>
      <trkpt lat="42.72948" lon="9.22757">
        <ele>3.04</ele>
        <time>2017-06-01T09:29:16Z</time>
      </trkpt>
      <trkpt lat="42.72968" lon="9.22722">
        <ele>3.13</ele>
        <time>2017-06-01T09:29:32Z</time>
      </trkpt>
      <trkpt lat="42.72995" lon="9.22691">
        <ele>2.99</ele>
        <time>2017-06-01T09:29:50Z</time>
      </trkpt>
      <trkpt lat="42.73027" lon="9.2267">
        <ele>2.63</ele>
        <time>2017-06-01T09:30:07Z</time>
      </trkpt>
      <trkpt lat="42.73068" lon="9.2265">
        <ele>2.65</ele>
        <time>2017-06-01T09:30:29Z</time>
      </trkpt>
      <trkpt lat="42.73098" lon="9.22622">
        <ele>2.95</ele>
        <time>2017-06-01T09:30:48Z</time>
      </trkpt>
      <trkpt lat="42.73123" lon="9.22594">
        <ele>2.66</ele>
        <time>2017-06-01T09:31:04Z</time>
      </trkpt>
      <trkpt lat="42.73154" lon="9.22572">
        <ele>2.74</ele>
        <time>2017-06-01T09:31:21Z</time>
      </trkpt>
      <trkpt lat="42.73185" lon="9.22546">
        <ele>2.63</ele>
        <time>2017-06-01T09:31:39Z</time>
      </trkpt>
      <trkpt lat="42.73207" lon="9.22521">
        <ele>2.6</ele>
        <time>2017-06-01T09:31:53Z</time>
      </trkpt>
      <trkpt lat="42.73236" lon="9.22494">
        <ele>2.8</ele>
        <time>2017-06-01T09:32:10Z</time>
      </trkpt>
      <trkpt lat="42.73267" lon="9.22477">
        <ele>2.68</ele>
        <time>2017-06-01T09:32:27Z</time>
      </trkpt>
      <trkpt lat="42.73306" lon="9.22465">
        <ele>2.4</ele>
        <time>2017-06-01T09:32:47Z</time>
      </trkpt>
      <trkpt lat="42.73341" lon="9.22454">
        <ele>2.37</ele>
        <time>2017-06-01T09:33:04Z</time>
      </trkpt>
      <trkpt lat="42.73375" lon="9.2244">
        <ele>2.46</ele>
        <time>2017-06-01T09:33:22Z</time>
      </trkpt>
      <trkpt lat="42.73403" lon="9.22416">
        <ele>2.62</ele>
        <time>2017-06-01T09:33:38Z</time>
      </trkpt>
      <trkpt lat="42.73434" lon="9.22388">
        <ele>2.48</ele>
        <time>2017-06-01T09:33:56Z</time>
      </trkpt>
      <trkpt lat="42.73468" lon="9.22358">
        <ele>2.47</ele>
        <time>2017-06-01T09:34:15Z</time>
      </trkpt>
      <trkpt lat="42.73493" lon="9.22334">
        <ele>2.18</ele>
        <time>2017-06-01T09:34:30Z</time>
      </trkpt>
      <trkpt lat="42.73514" lon="9.22304">
        <ele>2.19</ele>
        <time>2017-06-01T09:34:44Z</time>
      </trkpt>
      <trkpt lat="42.73534" lon="9.22267">
        <ele>2.26</ele>
        <time>2017-06-01T09:35:01Z</time>
      </trkpt>
      <trkpt lat="42.73553" lon="9.2223">
        <ele>2.37</ele>
        <time>2017-06-01T09:35:19Z</time>
      </trkpt>
      <trkpt lat="42.73576" lon="9.22198">
        <ele>2.2</ele>
        <time>2017-06-01T09:35:39Z</time>
      </trkpt>
      <trkpt lat="42.73586" lon="9.22158">
        <ele>2.24</ele>
        <time>2017-06-01T09:35:56Z</time>
      </trkpt>
      <trkpt lat="42.73584" lon="9.22119">
        <ele>2.3</ele>
        <time>2017-06-01T09:36:12Z</time>
      </trkpt>
      <trkpt lat="42.7357" lon="9.22083">
        <ele>1.99</ele>
        <time>2017-06-01T09:36:28Z</time>
      </trkpt>
      <trkpt lat="42.73557" lon="9.22065">
        <ele>1.86</ele>
        <time>2017-06-01T09:36:43Z</time>
      </trkpt>
      <trkpt lat="42.73557" lon="9.22058">
        <ele>1.88</ele>
        <time>2017-06-01T09:36:51Z</time>
      </trkpt>
      <trkpt lat="42.73548" lon="9.22032">
        <ele>1.81</ele>
        <time>2017-06-01T09:37:07Z</time>
      </trkpt>
      <trkpt lat="42.73525" lon="9.21996">
        <ele>1.84</ele>
        <time>2017-06-01T09:37:25Z</time>
      </trkpt>
      <trkpt lat="42.73512" lon="9.21957">
        <ele>1.86</ele>
        <time>2017-06-01T09:37:41Z</time>
      </trkpt>
      <trkpt lat="42.73504" lon="9.21921">
        <ele>2.17</ele>
        <time>2017-06-01T09:37:55Z</time>
      </trkpt>
      <trkpt lat="42.73484" lon="9.21884">
        <ele>2.26</ele>
        <time>2017-06-01T09:38:11Z</time>
      </trkpt>
      <trkpt lat="42.73461" lon="9.21843">
        <ele>2.09</ele>
        <time>2017-06-01T09:38:28Z</time>
      </trkpt>
      <trkpt lat="42.73445" lon="9.21807">
        <ele>2.06</ele>
        <time>2017-06-01T09:38:43Z</time>
      </trkpt>
      <trkpt lat="42.73431" lon="9.21771">
        <ele>2.09</ele>
        <time>2017-06-01T09:38:57Z</time>
      </trkpt>
      <trkpt lat="42.73421" lon="9.21727">
        <ele>2.14</ele>
        <time>2017-06-01T09:39:13Z</time>
      </trkpt>
      <trkpt lat="42.73413" lon="9.21688">
        <ele>2.23</ele>
        <time>2017-06-01T09:39:28Z</time>
      </trkpt>
      <trkpt lat="42.73402" lon="9.21647">
        <ele>2.22</ele>
        <time>2017-06-01T09:39:44Z</time>
      </trkpt>
      <trkpt lat="42.73395" lon="9.21605">
        <ele>2.26</ele>
        <time>2017-06-01T09:40:00Z</time>
      </trkpt>
      <trkpt lat="42.73385" lon="9.21566">
        <ele>2.34</ele>
        <time>2017-06-01T09:40:14Z</time>
      </trkpt>
      <trkpt lat="42.73378" lon="9.21531">
        <ele>2.45</ele>
        <time>2017-06-01T09:40:27Z</time>
      </trkpt>
      <trkpt lat="42.73369" lon="9.21488">
        <ele>2.45</ele>
        <time>2017-06-01T09:40:43Z</time>
      </trkpt>
      <trkpt lat="42.73365" lon="9.21442">
        <ele>2.44</ele>
        <time>2017-06-01T09:41:03Z</time>
      </trkpt>
      <trkpt lat="42.73363" lon="9.21393">
        <ele>2.55</ele>
        <time>2017-06-01T09:41:26Z</time>
      </trkpt>
      <trkpt lat="42.73362" lon="9.21366">
        <ele>2.74</ele>
        <time>2017-06-01T09:41:39Z</time>
      </trkpt>
      <trkpt lat="42.73344" lon="9.21344">
        <ele>2.78</ele>
        <time>2017-06-01T09:41:53Z</time>
      </trkpt>
      <trkpt lat="42.73323" lon="9.21319">
        <ele>2.55</ele>
        <time>2017-06-01T09:42:08Z</time>
      </trkpt>
      <trkpt lat="42.73306" lon="9.21291">
        <ele>2.93</ele>
        <time>2017-06-01T09:42:22Z</time>
      </trkpt>
      <trkpt lat="42.73285" lon="9.21251">
        <ele>2.52</ele>
        <time>2017-06-01T09:42:39Z</time>
      </trkpt>
      <trkpt lat="42.73268" lon="9.21211">
        <ele>2.59</ele>
        <time>2017-06-01T09:42:55Z</time>
      </trkpt>
      <trkpt lat="42.73254" lon="9.21184">
        <ele>2.64</ele>
        <time>2017-06-01T09:43:10Z</time>
      </trkpt>
      <trkpt lat="42.73228" lon="9.21149">
        <ele>2.58</ele>
        <time>2017-06-01T09:43:29Z</time>
      </trkpt>
      <trkpt lat="42.73203" lon="9.21119">
        <ele>2.76</ele>
        <time>2017-06-01T09:43:45Z</time>
      </trkpt>
      <trkpt lat="42.73184" lon="9.21095">
        <ele>2.93</ele>
        <time>2017-06-01T09:43:58Z</time>
      </trkpt>
      <trkpt lat="42.73159" lon="9.21072">
        <ele>2.97</ele>
        <time>2017-06-01T09:44:13Z</time>
      </trkpt>
      <trkpt lat="42.73134" lon="9.21043">
        <ele>2.79</ele>
        <time>2017-06-01T09:44:28Z</time>
      </trkpt>
      <trkpt lat="42.73116" lon="9.2101">
        <ele>2.98</ele>
        <time>2017-06-01T09:44:42Z</time>
      </trkpt>
      <trkpt lat="42.73107" lon="9.20983">
        <ele>2.91</ele>
        <time>2017-06-01T09:44:56Z</time>
      </trkpt>
      <trkpt lat="42.73097" lon="9.20942">
        <ele>3.04</ele>
        <time>2017-06-01T09:45:13Z</time>
      </trkpt>
      <trkpt lat="42.73082" lon="9.20907">
        <ele>3.06</ele>
        <time>2017-06-01T09:45:29Z</time>
      </trkpt>
      <trkpt lat="42.73062" lon="9.20877">
        <ele>3.15</ele>
        <time>2017-06-01T09:45:44Z</time>
      </trkpt>
      <trkpt lat="42.73036" lon="9.20862">
        <ele>3</ele>
        <time>2017-06-01T09:45:58Z</time>
      </trkpt>
      <trkpt lat="42.73012" lon="9.20861">
        <ele>2.93</ele>
        <time>2017-06-01T09:46:16Z</time>
      </trkpt>
      <trkpt lat="42.73009" lon="9.20863">
        <ele>2.92</ele>
        <time>2017-06-01T09:46:39Z</time>
      </trkpt>
      <trkpt lat="42.73001" lon="9.20865">
        <ele>2.81</ele>
        <time>2017-06-01T09:47:09Z</time>
      </trkpt>
      <trkpt lat="42.72994" lon="9.20866">
        <ele>2.85</ele>
        <time>2017-06-01T09:47:21Z</time>
      </trkpt>
      <trkpt lat="42.72988" lon="9.20865">
        <ele>2.83</ele>
        <time>2017-06-01T09:47:26Z</time>
      </trkpt>
      <trkpt lat="42.72969" lon="9.20844">
        <ele>3.07</ele>
        <time>2017-06-01T09:47:43Z</time>
      </trkpt>
      <trkpt lat="42.7295" lon="9.20818">
        <ele>3.03</ele>
        <time>2017-06-01T09:47:58Z</time>
      </trkpt>
      <trkpt lat="42.72935" lon="9.20795">
        <ele>3.18</ele>
        <time>2017-06-01T09:48:13Z</time>
      </trkpt>
      <trkpt lat="42.7293" lon="9.20792">
        <ele>2.89</ele>
        <time>2017-06-01T09:48:35Z</time>
      </trkpt>
      <trkpt lat="42.72926" lon="9.20789">
        <ele>2.79</ele>
        <time>2017-06-01T09:48:58Z</time>
      </trkpt>
      <trkpt lat="42.72922" lon="9.2077">
        <ele>3.06</ele>
        <time>2017-06-01T09:49:25Z</time>
      </trkpt>
      <trkpt lat="42.72911" lon="9.20742">
        <ele>2.75</ele>
        <time>2017-06-01T09:49:41Z</time>
      </trkpt>
      <trkpt lat="42.72901" lon="9.20714">
        <ele>2.84</ele>
        <time>2017-06-01T09:49:55Z</time>
      </trkpt>
      <trkpt lat="42.72892" lon="9.20686">
        <ele>2.89</ele>
        <time>2017-06-01T09:50:08Z</time>
      </trkpt>
      <trkpt lat="42.72878" lon="9.20652">
        <ele>3</ele>
        <time>2017-06-01T09:50:23Z</time>
      </trkpt>
      <trkpt lat="42.72859" lon="9.2062">
        <ele>3.14</ele>
        <time>2017-06-01T09:50:38Z</time>
      </trkpt>
      <trkpt lat="42.72841" lon="9.20605">
        <ele>2.88</ele>
        <time>2017-06-01T09:50:51Z</time>
      </trkpt>
      <trkpt lat="42.72816" lon="9.20584">
        <ele>2.98</ele>
        <time>2017-06-01T09:51:08Z</time>
      </trkpt>
      <trkpt lat="42.7278" lon="9.20571">
        <ele>2.77</ele>
        <time>2017-06-01T09:51:27Z</time>
      </trkpt>
      <trkpt lat="42.7275" lon="9.20563">
        <ele>2.36</ele>
        <time>2017-06-01T09:51:43Z</time>
      </trkpt>
      <trkpt lat="42.72718" lon="9.20552">
        <ele>2.33</ele>
        <time>2017-06-01T09:51:58Z</time>
      </trkpt>
      <trkpt lat="42.72693" lon="9.20547">
        <ele>2.19</ele>
        <time>2017-06-01T09:52:16Z</time>
      </trkpt>
      <trkpt lat="42.72675" lon="9.20544">
        <ele>2.16</ele>
        <time>2017-06-01T09:52:33Z</time>
      </trkpt>
      <trkpt lat="42.72669" lon="9.20544">
        <ele>2.8</ele>
        <time>2017-06-01T09:52:49Z</time>
      </trkpt>
      <trkpt lat="42.72671" lon="9.20549">
        <ele>2.5</ele>
        <time>2017-06-01T09:53:06Z</time>
      </trkpt>
      <trkpt lat="42.72669" lon="9.2055">
        <ele>3.42</ele>
        <time>2017-06-01T09:53:26Z</time>
      </trkpt>
      <trkpt lat="42.72668" lon="9.2055">
        <ele>3.39</ele>
        <time>2017-06-01T09:53:48Z</time>
      </trkpt>
      <trkpt lat="42.72669" lon="9.20551">
        <ele>2.92</ele>
        <time>2017-06-01T09:54:00Z</time>
      </trkpt>
      <trkpt lat="42.7267" lon="9.20544">
        <ele>2.93</ele>
        <time>2017-06-01T10:06:36Z</time>
      </trkpt>
      <trkpt lat="42.72675" lon="9.20548">
        <ele>0.28</ele>
        <time>2017-06-01T10:07:06Z</time>
      </trkpt>
      <trkpt lat="42.72676" lon="9.20549">
        <ele>-0.06</ele>
        <time>2017-06-01T10:07:57Z</time>
      </trkpt>
      <trkpt lat="42.72672" lon="9.2055">
        <ele>-0.07</ele>
        <time>2017-06-01T10:08:49Z</time>
      </trkpt>
      <trkpt lat="42.72671" lon="9.20551">
        <ele>0.01</ele>
        <time>2017-06-01T10:09:30Z</time>
      </trkpt>
      <trkpt lat="42.72671" lon="9.2055">
        <ele>0.13</ele>
        <time>2017-06-01T10:09:59Z</time>
      </trkpt>
      <trkpt lat="42.72672" lon="9.20549">
        <ele>-0.05</ele>
        <time>2017-06-01T10:10:33Z</time>
      </trkpt>
      <trkpt lat="42.72672" lon="9.20549">
        <ele>0.03</ele>
        <time>2017-06-01T10:10:59Z</time>
      </trkpt>
      <trkpt lat="42.72672" lon="9.20549">
        <ele>-0.13</ele>
        <time>2017-06-01T10:11:04Z</time>
      </trkpt>
      <trkpt lat="42.72671" lon="9.20547">
        <ele>-0.97</ele>
        <time>2017-06-01T11:21:08Z</time>
      </trkpt>
      <trkpt lat="42.72672" lon="9.20546">
        <ele>-0.87</ele>
        <time>2017-06-01T11:21:41Z</time>
      </trkpt>
      <trkpt lat="42.72671" lon="9.20547">
        <ele>-1</ele>
        <time>2017-06-01T11:22:30Z</time>
      </trkpt>
      <trkpt lat="42.7267" lon="9.20547">
        <ele>-0.85</ele>
        <time>2017-06-01T11:22:58Z</time>
      </trkpt>
      <trkpt lat="42.72673" lon="9.20549">
        <ele>-0.95</ele>
        <time>2017-06-01T11:23:18Z</time>
      </trkpt>
      <trkpt lat="42.72674" lon="9.2055">
        <ele>-1.11</ele>
        <time>2017-06-01T11:23:46Z</time>
      </trkpt>
      <trkpt lat="42.72675" lon="9.2055">
        <ele>-1.3</ele>
        <time>2017-06-01T11:24:12Z</time>
      </trkpt>
      <trkpt lat="42.72673" lon="9.20547">
        <ele>-0.84</ele>
        <time>2017-06-01T11:24:26Z</time>
      </trkpt>
      <trkpt lat="42.72669" lon="9.20547">
        <ele>-0.24</ele>
        <time>2017-06-01T11:24:46Z</time>
      </trkpt>
      <trkpt lat="42.72669" lon="9.20547">
        <ele>-0.4</ele>
        <time>2017-06-01T11:25:04Z</time>
      </trkpt>
      <trkpt lat="42.72677" lon="9.20543">
        <ele>-1.05</ele>
        <time>2017-06-01T11:25:24Z</time>
      </trkpt>
      <trkpt lat="42.72678" lon="9.20537">
        <ele>-1.77</ele>
        <time>2017-06-01T11:25:43Z</time>
      </trkpt>
      <trkpt lat="42.7268" lon="9.20532">
        <ele>-1.71</ele>
        <time>2017-06-01T11:25:56Z</time>
      </trkpt>
      <trkpt lat="42.72682" lon="9.20504">
        <ele>-1.63</ele>
        <time>2017-06-01T11:26:13Z</time>
      </trkpt>
      <trkpt lat="42.72683" lon="9.20467">
        <ele>-1.5</ele>
        <time>2017-06-01T11:26:28Z</time>
      </trkpt>
      <trkpt lat="42.72686" lon="9.20424">
        <ele>-1.42</ele>
        <time>2017-06-01T11:26:44Z</time>
      </trkpt>
      <trkpt lat="42.72692" lon="9.20372">
        <ele>-1.44</ele>
        <time>2017-06-01T11:27:03Z</time>
      </trkpt>
      <trkpt lat="42.72701" lon="9.20324">
        <ele>-1.33</ele>
        <time>2017-06-01T11:27:22Z</time>
      </trkpt>
      <trkpt lat="42.72706" lon="9.20271">
        <ele>-1.48</ele>
        <time>2017-06-01T11:27:41Z</time>
      </trkpt>
      <trkpt lat="42.72711" lon="9.20226">
        <ele>-1.69</ele>
        <time>2017-06-01T11:27:57Z</time>
      </trkpt>
      <trkpt lat="42.72716" lon="9.20179">
        <ele>-1.48</ele>
        <time>2017-06-01T11:28:14Z</time>
      </trkpt>
      <trkpt lat="42.72726" lon="9.20134">
        <ele>-1.42</ele>
        <time>2017-06-01T11:28:31Z</time>
      </trkpt>
      <trkpt lat="42.72742" lon="9.2009">
        <ele>-1.35</ele>
        <time>2017-06-01T11:28:49Z</time>
      </trkpt>
      <trkpt lat="42.72748" lon="9.20075">
        <ele>-1.34</ele>
        <time>2017-06-01T11:28:55Z</time>
      </trkpt>
      <trkpt lat="42.72763" lon="9.2003">
        <ele>-1.25</ele>
        <time>2017-06-01T11:29:13Z</time>
      </trkpt>
      <trkpt lat="42.7276" lon="9.1998">
        <ele>-1.49</ele>
        <time>2017-06-01T11:29:30Z</time>
      </trkpt>
      <trkpt lat="42.72766" lon="9.19936">
        <ele>-1.36</ele>
        <time>2017-06-01T11:29:46Z</time>
      </trkpt>
      <trkpt lat="42.72769" lon="9.19888">
        <ele>-1.35</ele>
        <time>2017-06-01T11:30:03Z</time>
      </trkpt>
      <trkpt lat="42.72777" lon="9.19847">
        <ele>-1.33</ele>
        <time>2017-06-01T11:30:19Z</time>
      </trkpt>
      <trkpt lat="42.72786" lon="9.19811">
        <ele>-1.32</ele>
        <time>2017-06-01T11:30:33Z</time>
      </trkpt>
      <trkpt lat="42.72785" lon="9.19769">
        <ele>-1.48</ele>
        <time>2017-06-01T11:30:48Z</time>
      </trkpt>
      <trkpt lat="42.72787" lon="9.19726">
        <ele>-1.29</ele>
        <time>2017-06-01T11:31:03Z</time>
      </trkpt>
      <trkpt lat="42.72794" lon="9.19672">
        <ele>-1.33</ele>
        <time>2017-06-01T11:31:23Z</time>
      </trkpt>
      <trkpt lat="42.72802" lon="9.19626">
        <ele>-1.52</ele>
        <time>2017-06-01T11:31:40Z</time>
      </trkpt>
      <trkpt lat="42.72808" lon="9.19586">
        <ele>-1.39</ele>
        <time>2017-06-01T11:31:55Z</time>
      </trkpt>
      <trkpt lat="42.72814" lon="9.19541">
        <ele>-1.43</ele>
        <time>2017-06-01T11:32:11Z</time>
      </trkpt>
      <trkpt lat="42.7282" lon="9.19506">
        <ele>-1.35</ele>
        <time>2017-06-01T11:32:24Z</time>
      </trkpt>
      <trkpt lat="42.72826" lon="9.19453">
        <ele>-1.48</ele>
        <time>2017-06-01T11:32:43Z</time>
      </trkpt>
      <trkpt lat="42.72827" lon="9.19401">
        <ele>-1.25</ele>
        <time>2017-06-01T11:33:01Z</time>
      </trkpt>
      <trkpt lat="42.72832" lon="9.19352">
        <ele>-1.43</ele>
        <time>2017-06-01T11:33:18Z</time>
      </trkpt>
      <trkpt lat="42.72839" lon="9.1931">
        <ele>-1.46</ele>
        <time>2017-06-01T11:33:33Z</time>
      </trkpt>
      <trkpt lat="42.72845" lon="9.19262">
        <ele>-1.52</ele>
        <time>2017-06-01T11:33:50Z</time>
      </trkpt>
      <trkpt lat="42.72849" lon="9.19214">
        <ele>-1.64</ele>
        <time>2017-06-01T11:34:07Z</time>
      </trkpt>
      <trkpt lat="42.72861" lon="9.19159">
        <ele>-1.59</ele>
        <time>2017-06-01T11:34:27Z</time>
      </trkpt>
      <trkpt lat="42.7287" lon="9.19106">
        <ele>-1.54</ele>
        <time>2017-06-01T11:34:46Z</time>
      </trkpt>
      <trkpt lat="42.72885" lon="9.19062">
        <ele>-1.56</ele>
        <time>2017-06-01T11:35:03Z</time>
      </trkpt>
      <trkpt lat="42.72899" lon="9.1902">
        <ele>-1.55</ele>
        <time>2017-06-01T11:35:20Z</time>
      </trkpt>
      <trkpt lat="42.72915" lon="9.18974">
        <ele>-1.4</ele>
        <time>2017-06-01T11:35:38Z</time>
      </trkpt>
      <trkpt lat="42.7293" lon="9.18926">
        <ele>-1.61</ele>
        <time>2017-06-01T11:35:56Z</time>
      </trkpt>
      <trkpt lat="42.72932" lon="9.1888">
        <ele>-1.95</ele>
        <time>2017-06-01T11:36:12Z</time>
      </trkpt>
      <trkpt lat="42.72937" lon="9.18829">
        <ele>-1.89</ele>
        <time>2017-06-01T11:36:30Z</time>
      </trkpt>
      <trkpt lat="42.7294" lon="9.18774">
        <ele>-1.67</ele>
        <time>2017-06-01T11:36:49Z</time>
      </trkpt>
      <trkpt lat="42.72949" lon="9.18729">
        <ele>-1.69</ele>
        <time>2017-06-01T11:37:05Z</time>
      </trkpt>
      <trkpt lat="42.7296" lon="9.18687">
        <ele>-1.64</ele>
        <time>2017-06-01T11:37:21Z</time>
      </trkpt>
      <trkpt lat="42.72968" lon="9.18644">
        <ele>-1.85</ele>
        <time>2017-06-01T11:37:37Z</time>
      </trkpt>
      <trkpt lat="42.7298" lon="9.18595">
        <ele>-1.45</ele>
        <time>2017-06-01T11:37:55Z</time>
      </trkpt>
      <trkpt lat="42.72992" lon="9.1855">
        <ele>-1.76</ele>
        <time>2017-06-01T11:38:12Z</time>
      </trkpt>
      <trkpt lat="42.73" lon="9.185">
        <ele>-1.63</ele>
        <time>2017-06-01T11:38:30Z</time>
      </trkpt>
      <trkpt lat="42.73013" lon="9.18456">
        <ele>-1.9</ele>
        <time>2017-06-01T11:38:47Z</time>
      </trkpt>
      <trkpt lat="42.7303" lon="9.1841">
        <ele>-1.64</ele>
        <time>2017-06-01T11:39:06Z</time>
      </trkpt>
      <trkpt lat="42.73041" lon="9.18363">
        <ele>-1.7</ele>
        <time>2017-06-01T11:39:24Z</time>
      </trkpt>
      <trkpt lat="42.73043" lon="9.18308">
        <ele>-1.69</ele>
        <time>2017-06-01T11:39:43Z</time>
      </trkpt>
      <trkpt lat="42.7305" lon="9.18266">
        <ele>-1.75</ele>
        <time>2017-06-01T11:39:59Z</time>
      </trkpt>
      <trkpt lat="42.73068" lon="9.18218">
        <ele>-1.95</ele>
        <time>2017-06-01T11:40:18Z</time>
      </trkpt>
      <trkpt lat="42.73081" lon="9.18177">
        <ele>-1.8</ele>
        <time>2017-06-01T11:40:35Z</time>
      </trkpt>
      <trkpt lat="42.73091" lon="9.18136">
        <ele>-1.9</ele>
        <time>2017-06-01T11:40:51Z</time>
      </trkpt>
      <trkpt lat="42.73102" lon="9.1809">
        <ele>-1.83</ele>
        <time>2017-06-01T11:41:08Z</time>
      </trkpt>
      <trkpt lat="42.73115" lon="9.18036">
        <ele>-2.13</ele>
        <time>2017-06-01T11:41:28Z</time>
      </trkpt>
      <trkpt lat="42.73128" lon="9.17988">
        <ele>-2</ele>
        <time>2017-06-01T11:41:47Z</time>
      </trkpt>
      <trkpt lat="42.73144" lon="9.17949">
        <ele>-2.23</ele>
        <time>2017-06-01T11:42:04Z</time>
      </trkpt>
      <trkpt lat="42.73162" lon="9.17905">
        <ele>-1.98</ele>
        <time>2017-06-01T11:42:23Z</time>
      </trkpt>
      <trkpt lat="42.73179" lon="9.17864">
        <ele>-1.87</ele>
        <time>2017-06-01T11:42:41Z</time>
      </trkpt>
      <trkpt lat="42.73192" lon="9.17824">
        <ele>-2.1</ele>
        <time>2017-06-01T11:42:57Z</time>
      </trkpt>
      <trkpt lat="42.73208" lon="9.17782">
        <ele>-1.91</ele>
        <time>2017-06-01T11:43:14Z</time>
      </trkpt>
      <trkpt lat="42.73214" lon="9.17746">
        <ele>-1.83</ele>
        <time>2017-06-01T11:43:30Z</time>
      </trkpt>
      <trkpt lat="42.73224" lon="9.17696">
        <ele>-1.75</ele>
        <time>2017-06-01T11:43:50Z</time>
      </trkpt>
      <trkpt lat="42.73236" lon="9.17655">
        <ele>-2.04</ele>
        <time>2017-06-01T11:44:07Z</time>
      </trkpt>
      <trkpt lat="42.73252" lon="9.17617">
        <ele>-1.75</ele>
        <time>2017-06-01T11:44:24Z</time>
      </trkpt>
      <trkpt lat="42.73268" lon="9.17583">
        <ele>-1.82</ele>
        <time>2017-06-01T11:44:39Z</time>
      </trkpt>
      <trkpt lat="42.73273" lon="9.17558">
        <ele>-2.16</ele>
        <time>2017-06-01T11:44:54Z</time>
      </trkpt>
      <trkpt lat="42.7328" lon="9.17532">
        <ele>-2.29</ele>
        <time>2017-06-01T11:45:09Z</time>
      </trkpt>
      <trkpt lat="42.73298" lon="9.17507">
        <ele>-2.15</ele>
        <time>2017-06-01T11:45:25Z</time>
      </trkpt>
      <trkpt lat="42.7332" lon="9.17471">
        <ele>-1.92</ele>
        <time>2017-06-01T11:45:43Z</time>
      </trkpt>
      <trkpt lat="42.73333" lon="9.17437">
        <ele>-1.74</ele>
        <time>2017-06-01T11:45:59Z</time>
      </trkpt>
      <trkpt lat="42.73344" lon="9.17393">
        <ele>-2.03</ele>
        <time>2017-06-01T11:46:16Z</time>
      </trkpt>
      <trkpt lat="42.73363" lon="9.17356">
        <ele>-1.88</ele>
        <time>2017-06-01T11:46:33Z</time>
      </trkpt>
      <trkpt lat="42.73381" lon="9.17322">
        <ele>-1.73</ele>
        <time>2017-06-01T11:46:49Z</time>
      </trkpt>
      <trkpt lat="42.73401" lon="9.17291">
        <ele>-1.86</ele>
        <time>2017-06-01T11:47:05Z</time>
      </trkpt>
      <trkpt lat="42.73418" lon="9.1725">
        <ele>-2</ele>
        <time>2017-06-01T11:47:23Z</time>
      </trkpt>
      <trkpt lat="42.73435" lon="9.17213">
        <ele>-2.05</ele>
        <time>2017-06-01T11:47:40Z</time>
      </trkpt>
      <trkpt lat="42.73451" lon="9.17177">
        <ele>-1.92</ele>
        <time>2017-06-01T11:47:56Z</time>
      </trkpt>
      <trkpt lat="42.73463" lon="9.17142">
        <ele>-1.82</ele>
        <time>2017-06-01T11:48:13Z</time>
      </trkpt>
      <trkpt lat="42.73482" lon="9.17104">
        <ele>-1.74</ele>
        <time>2017-06-01T11:48:31Z</time>
      </trkpt>
      <trkpt lat="42.73506" lon="9.17083">
        <ele>-1.98</ele>
        <time>2017-06-01T11:48:46Z</time>
      </trkpt>
      <trkpt lat="42.73529" lon="9.17062">
        <ele>-1.85</ele>
        <time>2017-06-01T11:49:00Z</time>
      </trkpt>
      <trkpt lat="42.73547" lon="9.17027">
        <ele>-2.03</ele>
        <time>2017-06-01T11:49:19Z</time>
      </trkpt>
      <trkpt lat="42.73552" lon="9.1701">
        <ele>-2.06</ele>
        <time>2017-06-01T11:49:35Z</time>
      </trkpt>
      <trkpt lat="42.73554" lon="9.17005">
        <ele>-1.91</ele>
        <time>2017-06-01T11:50:03Z</time>
      </trkpt>
      <trkpt lat="42.73561" lon="9.17007">
        <ele>-1.8</ele>
        <time>2017-06-01T11:50:14Z</time>
      </trkpt>
      <trkpt lat="42.73577" lon="9.16994">
        <ele>-1.65</ele>
        <time>2017-06-01T11:50:31Z</time>
      </trkpt>
      <trkpt lat="42.73587" lon="9.16974">
        <ele>-1.65</ele>
        <time>2017-06-01T11:50:47Z</time>
      </trkpt>
      <trkpt lat="42.73595" lon="9.16955">
        <ele>-1.68</ele>
        <time>2017-06-01T11:50:59Z</time>
      </trkpt>
      <trkpt lat="42.73609" lon="9.16931">
        <ele>-1.5</ele>
        <time>2017-06-01T11:51:15Z</time>
      </trkpt>
      <trkpt lat="42.73617" lon="9.16917">
        <ele>-1.53</ele>
        <time>2017-06-01T11:51:30Z</time>
      </trkpt>
      <trkpt lat="42.73622" lon="9.16912">
        <ele>-1.64</ele>
        <time>2017-06-01T11:51:38Z</time>
      </trkpt>
      <trkpt lat="42.73642" lon="9.16897">
        <ele>-1.72</ele>
        <time>2017-06-01T11:51:57Z</time>
      </trkpt>
      <trkpt lat="42.73644" lon="9.16886">
        <ele>-1.49</ele>
        <time>2017-06-01T11:52:14Z</time>
      </trkpt>
      <trkpt lat="42.73649" lon="9.16868">
        <ele>-1.26</ele>
        <time>2017-06-01T11:52:35Z</time>
      </trkpt>
      <trkpt lat="42.73661" lon="9.16844">
        <ele>-1.47</ele>
        <time>2017-06-01T11:52:50Z</time>
      </trkpt>
      <trkpt lat="42.73673" lon="9.16821">
        <ele>-1.23</ele>
        <time>2017-06-01T11:53:02Z</time>
      </trkpt>
      <trkpt lat="42.73684" lon="9.16795">
        <ele>-1.26</ele>
        <time>2017-06-01T11:53:17Z</time>
      </trkpt>
      <trkpt lat="42.73696" lon="9.16771">
        <ele>-1.42</ele>
        <time>2017-06-01T11:53:30Z</time>
      </trkpt>
      <trkpt lat="42.73709" lon="9.16742">
        <ele>-1.22</ele>
        <time>2017-06-01T11:53:45Z</time>
      </trkpt>
      <trkpt lat="42.73719" lon="9.16711">
        <ele>-1.06</ele>
        <time>2017-06-01T11:54:00Z</time>
      </trkpt>
      <trkpt lat="42.73724" lon="9.16673">
        <ele>-1.12</ele>
        <time>2017-06-01T11:54:16Z</time>
      </trkpt>
      <trkpt lat="42.73731" lon="9.16635">
        <ele>-1.2</ele>
        <time>2017-06-01T11:54:32Z</time>
      </trkpt>
      <trkpt lat="42.73743" lon="9.16606">
        <ele>-1.26</ele>
        <time>2017-06-01T11:54:47Z</time>
      </trkpt>
      <trkpt lat="42.73761" lon="9.16582">
        <ele>-1.11</ele>
        <time>2017-06-01T11:55:03Z</time>
      </trkpt>
      <trkpt lat="42.73772" lon="9.16568">
        <ele>-1.36</ele>
        <time>2017-06-01T11:55:21Z</time>
      </trkpt>
      <trkpt lat="42.73772" lon="9.16569">
        <ele>-1.26</ele>
        <time>2017-06-01T11:55:48Z</time>
      </trkpt>
      <trkpt lat="42.73772" lon="9.16576">
        <ele>-1.17</ele>
        <time>2017-06-01T11:56:09Z</time>
      </trkpt>
      <trkpt lat="42.73779" lon="9.16594">
        <ele>-1.3</ele>
        <time>2017-06-01T11:56:35Z</time>
      </trkpt>
      <trkpt lat="42.73779" lon="9.16595">
        <ele>-1.3</ele>
        <time>2017-06-01T11:56:36Z</time>
      </trkpt>
      <trkpt lat="42.73782" lon="9.16623">
        <ele>-1.23</ele>
        <time>2017-06-01T11:56:52Z</time>
      </trkpt>
      <trkpt lat="42.73778" lon="9.16658">
        <ele>-1.19</ele>
        <time>2017-06-01T11:57:10Z</time>
      </trkpt>
      <trkpt lat="42.73769" lon="9.16697">
        <ele>-1.15</ele>
        <time>2017-06-01T11:57:27Z</time>
      </trkpt>
      <trkpt lat="42.73761" lon="9.16739">
        <ele>-1</ele>
        <time>2017-06-01T11:57:44Z</time>
      </trkpt>
      <trkpt lat="42.73755" lon="9.16791">
        <ele>-1.13</ele>
        <time>2017-06-01T11:58:03Z</time>
      </trkpt>
      <trkpt lat="42.73755" lon="9.16841">
        <ele>-1.03</ele>
        <time>2017-06-01T11:58:21Z</time>
      </trkpt>
      <trkpt lat="42.73754" lon="9.16896">
        <ele>-0.65</ele>
        <time>2017-06-01T11:58:40Z</time>
      </trkpt>
      <trkpt lat="42.73749" lon="9.16935">
        <ele>-0.39</ele>
        <time>2017-06-01T11:58:54Z</time>
      </trkpt>
      <trkpt lat="42.73746" lon="9.16984">
        <ele>-0.36</ele>
        <time>2017-06-01T11:59:11Z</time>
      </trkpt>
      <trkpt lat="42.73742" lon="9.17023">
        <ele>-0.12</ele>
        <time>2017-06-01T11:59:26Z</time>
      </trkpt>
      <trkpt lat="42.73727" lon="9.17046">
        <ele>-0.18</ele>
        <time>2017-06-01T11:59:41Z</time>
      </trkpt>
      <trkpt lat="42.73707" lon="9.17076">
        <ele>0.2</ele>
        <time>2017-06-01T11:59:57Z</time>
      </trkpt>
      <trkpt lat="42.73689" lon="9.17117">
        <ele>0.09</ele>
        <time>2017-06-01T12:00:14Z</time>
      </trkpt>
      <trkpt lat="42.73672" lon="9.17162">
        <ele>0.34</ele>
        <time>2017-06-01T12:00:31Z</time>
      </trkpt>
      <trkpt lat="42.73659" lon="9.17206">
        <ele>0.5</ele>
        <time>2017-06-01T12:00:48Z</time>
      </trkpt>
      <trkpt lat="42.73639" lon="9.17251">
        <ele>0.47</ele>
        <time>2017-06-01T12:01:05Z</time>
      </trkpt>
      <trkpt lat="42.7362" lon="9.17296">
        <ele>0.47</ele>
        <time>2017-06-01T12:01:22Z</time>
      </trkpt>
      <trkpt lat="42.73608" lon="9.1733">
        <ele>0.74</ele>
        <time>2017-06-01T12:01:36Z</time>
      </trkpt>
      <trkpt lat="42.73593" lon="9.17367">
        <ele>1.28</ele>
        <time>2017-06-01T12:01:52Z</time>
      </trkpt>
      <trkpt lat="42.73574" lon="9.17412">
        <ele>1.28</ele>
        <time>2017-06-01T12:02:10Z</time>
      </trkpt>
      <trkpt lat="42.73554" lon="9.17447">
        <ele>1.4</ele>
        <time>2017-06-01T12:02:25Z</time>
      </trkpt>
      <trkpt lat="42.73531" lon="9.17476">
        <ele>1.52</ele>
        <time>2017-06-01T12:02:39Z</time>
      </trkpt>
      <trkpt lat="42.735" lon="9.17515">
        <ele>1.75</ele>
        <time>2017-06-01T12:02:58Z</time>
      </trkpt>
      <trkpt lat="42.7348" lon="9.17557">
        <ele>1.77</ele>
        <time>2017-06-01T12:03:15Z</time>
      </trkpt>
      <trkpt lat="42.73464" lon="9.176">
        <ele>1.97</ele>
        <time>2017-06-01T12:03:31Z</time>
      </trkpt>
      <trkpt lat="42.73452" lon="9.17644">
        <ele>2</ele>
        <time>2017-06-01T12:03:47Z</time>
      </trkpt>
      <trkpt lat="42.73432" lon="9.17692">
        <ele>2.28</ele>
        <time>2017-06-01T12:04:05Z</time>
      </trkpt>
      <trkpt lat="42.73417" lon="9.17732">
        <ele>2.4</ele>
        <time>2017-06-01T12:04:20Z</time>
      </trkpt>
      <trkpt lat="42.73393" lon="9.17783">
        <ele>2.39</ele>
        <time>2017-06-01T12:04:39Z</time>
      </trkpt>
      <trkpt lat="42.73376" lon="9.1782">
        <ele>2.5</ele>
        <time>2017-06-01T12:04:53Z</time>
      </trkpt>
      <trkpt lat="42.7336" lon="9.17861">
        <ele>2.67</ele>
        <time>2017-06-01T12:05:09Z</time>
      </trkpt>
      <trkpt lat="42.7335" lon="9.17907">
        <ele>2.88</ele>
        <time>2017-06-01T12:05:25Z</time>
      </trkpt>
      <trkpt lat="42.73344" lon="9.17944">
        <ele>2.83</ele>
        <time>2017-06-01T12:05:38Z</time>
      </trkpt>
      <trkpt lat="42.73329" lon="9.17982">
        <ele>2.78</ele>
        <time>2017-06-01T12:05:52Z</time>
      </trkpt>
      <trkpt lat="42.73306" lon="9.18031">
        <ele>2.84</ele>
        <time>2017-06-01T12:06:11Z</time>
      </trkpt>
      <trkpt lat="42.73291" lon="9.18074">
        <ele>2.89</ele>
        <time>2017-06-01T12:06:27Z</time>
      </trkpt>
      <trkpt lat="42.73282" lon="9.18118">
        <ele>3.16</ele>
        <time>2017-06-01T12:06:42Z</time>
      </trkpt>
      <trkpt lat="42.73274" lon="9.18154">
        <ele>3.18</ele>
        <time>2017-06-01T12:06:55Z</time>
      </trkpt>
      <trkpt lat="42.73265" lon="9.18198">
        <ele>3.34</ele>
        <time>2017-06-01T12:07:10Z</time>
      </trkpt>
      <trkpt lat="42.73254" lon="9.18241">
        <ele>3.39</ele>
        <time>2017-06-01T12:07:25Z</time>
      </trkpt>
      <trkpt lat="42.73252" lon="9.18278">
        <ele>3.61</ele>
        <time>2017-06-01T12:07:38Z</time>
      </trkpt>
      <trkpt lat="42.73243" lon="9.18327">
        <ele>3.62</ele>
        <time>2017-06-01T12:07:55Z</time>
      </trkpt>
      <trkpt lat="42.73228" lon="9.18364">
        <ele>3.93</ele>
        <time>2017-06-01T12:08:09Z</time>
      </trkpt>
      <trkpt lat="42.73215" lon="9.18399">
        <ele>3.85</ele>
        <time>2017-06-01T12:08:22Z</time>
      </trkpt>
      <trkpt lat="42.7321" lon="9.18435">
        <ele>3.84</ele>
        <time>2017-06-01T12:08:37Z</time>
      </trkpt>
      <trkpt lat="42.73202" lon="9.18482">
        <ele>4.03</ele>
        <time>2017-06-01T12:08:54Z</time>
      </trkpt>
      <trkpt lat="42.73195" lon="9.18516">
        <ele>3.66</ele>
        <time>2017-06-01T12:09:07Z</time>
      </trkpt>
      <trkpt lat="42.7319" lon="9.18553">
        <ele>3.83</ele>
        <time>2017-06-01T12:09:20Z</time>
      </trkpt>
      <trkpt lat="42.7318" lon="9.18602">
        <ele>3.76</ele>
        <time>2017-06-01T12:09:37Z</time>
      </trkpt>
      <trkpt lat="42.73163" lon="9.18643">
        <ele>3.66</ele>
        <time>2017-06-01T12:09:52Z</time>
      </trkpt>
      <trkpt lat="42.73151" lon="9.18682">
        <ele>3.66</ele>
        <time>2017-06-01T12:10:06Z</time>
      </trkpt>
      <trkpt lat="42.73152" lon="9.18719">
        <ele>3.62</ele>
        <time>2017-06-01T12:10:19Z</time>
      </trkpt>
      <trkpt lat="42.73157" lon="9.18763">
        <ele>3.78</ele>
        <time>2017-06-01T12:10:35Z</time>
      </trkpt>
      <trkpt lat="42.73166" lon="9.18801">
        <ele>3.81</ele>
        <time>2017-06-01T12:10:49Z</time>
      </trkpt>
      <trkpt lat="42.73174" lon="9.18846">
        <ele>3.71</ele>
        <time>2017-06-01T12:11:05Z</time>
      </trkpt>
      <trkpt lat="42.73178" lon="9.18883">
        <ele>3.76</ele>
        <time>2017-06-01T12:11:18Z</time>
      </trkpt>
      <trkpt lat="42.73184" lon="9.18931">
        <ele>3.48</ele>
        <time>2017-06-01T12:11:34Z</time>
      </trkpt>
      <trkpt lat="42.73189" lon="9.18972">
        <ele>3.48</ele>
        <time>2017-06-01T12:11:48Z</time>
      </trkpt>
      <trkpt lat="42.73196" lon="9.1901">
        <ele>3.53</ele>
        <time>2017-06-01T12:12:01Z</time>
      </trkpt>
      <trkpt lat="42.73203" lon="9.19043">
        <ele>3.78</ele>
        <time>2017-06-01T12:12:13Z</time>
      </trkpt>
      <trkpt lat="42.73206" lon="9.19088">
        <ele>3.36</ele>
        <time>2017-06-01T12:12:28Z</time>
      </trkpt>
      <trkpt lat="42.73206" lon="9.1914">
        <ele>3.71</ele>
        <time>2017-06-01T12:12:45Z</time>
      </trkpt>
      <trkpt lat="42.73208" lon="9.19184">
        <ele>3.68</ele>
        <time>2017-06-01T12:12:59Z</time>
      </trkpt>
      <trkpt lat="42.7321" lon="9.19224">
        <ele>3.82</ele>
        <time>2017-06-01T12:13:12Z</time>
      </trkpt>
      <trkpt lat="42.73213" lon="9.19267">
        <ele>3.79</ele>
        <time>2017-06-01T12:13:27Z</time>
      </trkpt>
      <trkpt lat="42.73216" lon="9.1931">
        <ele>3.61</ele>
        <time>2017-06-01T12:13:41Z</time>
      </trkpt>
      <trkpt lat="42.73212" lon="9.19353">
        <ele>3.69</ele>
        <time>2017-06-01T12:13:55Z</time>
      </trkpt>
      <trkpt lat="42.73206" lon="9.19401">
        <ele>3.69</ele>
        <time>2017-06-01T12:14:11Z</time>
      </trkpt>
      <trkpt lat="42.73203" lon="9.1945">
        <ele>3.47</ele>
        <time>2017-06-01T12:14:28Z</time>
      </trkpt>
      <trkpt lat="42.73195" lon="9.19495">
        <ele>3.38</ele>
        <time>2017-06-01T12:14:45Z</time>
      </trkpt>
      <trkpt lat="42.73193" lon="9.19535">
        <ele>3.44</ele>
        <time>2017-06-01T12:14:59Z</time>
      </trkpt>
      <trkpt lat="42.73197" lon="9.19583">
        <ele>3.44</ele>
        <time>2017-06-01T12:15:16Z</time>
      </trkpt>
      <trkpt lat="42.73202" lon="9.19626">
        <ele>3.46</ele>
        <time>2017-06-01T12:15:31Z</time>
      </trkpt>
      <trkpt lat="42.7321" lon="9.1967">
        <ele>3.25</ele>
        <time>2017-06-01T12:15:47Z</time>
      </trkpt>
      <trkpt lat="42.73212" lon="9.19716">
        <ele>3.22</ele>
        <time>2017-06-01T12:16:02Z</time>
      </trkpt>
      <trkpt lat="42.73213" lon="9.19758">
        <ele>3.2</ele>
        <time>2017-06-01T12:16:16Z</time>
      </trkpt>
      <trkpt lat="42.73212" lon="9.19803">
        <ele>3.19</ele>
        <time>2017-06-01T12:16:31Z</time>
      </trkpt>
      <trkpt lat="42.73218" lon="9.19843">
        <ele>2.99</ele>
        <time>2017-06-01T12:16:45Z</time>
      </trkpt>
      <trkpt lat="42.73222" lon="9.19884">
        <ele>3.2</ele>
        <time>2017-06-01T12:16:59Z</time>
      </trkpt>
      <trkpt lat="42.73222" lon="9.19923">
        <ele>2.7</ele>
        <time>2017-06-01T12:17:12Z</time>
      </trkpt>
      <trkpt lat="42.73223" lon="9.19963">
        <ele>2.7</ele>
        <time>2017-06-01T12:17:26Z</time>
      </trkpt>
      <trkpt lat="42.73222" lon="9.20007">
        <ele>2.68</ele>
        <time>2017-06-01T12:17:40Z</time>
      </trkpt>
      <trkpt lat="42.7322" lon="9.20039">
        <ele>2.77</ele>
        <time>2017-06-01T12:17:51Z</time>
      </trkpt>
      <trkpt lat="42.73224" lon="9.20074">
        <ele>2.55</ele>
        <time>2017-06-01T12:18:03Z</time>
      </trkpt>
      <trkpt lat="42.7323" lon="9.20118">
        <ele>2.23</ele>
        <time>2017-06-01T12:18:18Z</time>
      </trkpt>
      <trkpt lat="42.73236" lon="9.20161">
        <ele>2.52</ele>
        <time>2017-06-01T12:18:33Z</time>
      </trkpt>
      <trkpt lat="42.73242" lon="9.20204">
        <ele>2.53</ele>
        <time>2017-06-01T12:18:48Z</time>
      </trkpt>
      <trkpt lat="42.7325" lon="9.2024">
        <ele>2.5</ele>
        <time>2017-06-01T12:19:01Z</time>
      </trkpt>
      <trkpt lat="42.73253" lon="9.20281">
        <ele>2.18</ele>
        <time>2017-06-01T12:19:15Z</time>
      </trkpt>
      <trkpt lat="42.73251" lon="9.20324">
        <ele>2.23</ele>
        <time>2017-06-01T12:19:29Z</time>
      </trkpt>
      <trkpt lat="42.7325" lon="9.20369">
        <ele>2.28</ele>
        <time>2017-06-01T12:19:44Z</time>
      </trkpt>
      <trkpt lat="42.73256" lon="9.20407">
        <ele>2.06</ele>
        <time>2017-06-01T12:19:57Z</time>
      </trkpt>
      <trkpt lat="42.73259" lon="9.20451">
        <ele>2.1</ele>
        <time>2017-06-01T12:20:12Z</time>
      </trkpt>
      <trkpt lat="42.73264" lon="9.20493">
        <ele>2.01</ele>
        <time>2017-06-01T12:20:27Z</time>
      </trkpt>
      <trkpt lat="42.73271" lon="9.20528">
        <ele>1.8</ele>
        <time>2017-06-01T12:20:40Z</time>
      </trkpt>
      <trkpt lat="42.73274" lon="9.20568">
        <ele>1.81</ele>
        <time>2017-06-01T12:20:54Z</time>
      </trkpt>
      <trkpt lat="42.73276" lon="9.20615">
        <ele>1.79</ele>
        <time>2017-06-01T12:21:10Z</time>
      </trkpt>
      <trkpt lat="42.73276" lon="9.20649">
        <ele>1.68</ele>
        <time>2017-06-01T12:21:22Z</time>
      </trkpt>
      <trkpt lat="42.73277" lon="9.2069">
        <ele>1.72</ele>
        <time>2017-06-01T12:21:36Z</time>
      </trkpt>
      <trkpt lat="42.73281" lon="9.20728">
        <ele>1.4</ele>
        <time>2017-06-01T12:21:49Z</time>
      </trkpt>
      <trkpt lat="42.73286" lon="9.20764">
        <ele>1.2</ele>
        <time>2017-06-01T12:22:02Z</time>
      </trkpt>
      <trkpt lat="42.73295" lon="9.20804">
        <ele>1.11</ele>
        <time>2017-06-01T12:22:17Z</time>
      </trkpt>
      <trkpt lat="42.733" lon="9.20842">
        <ele>1.29</ele>
        <time>2017-06-01T12:22:30Z</time>
      </trkpt>
      <trkpt lat="42.73308" lon="9.20883">
        <ele>1.19</ele>
        <time>2017-06-01T12:22:45Z</time>
      </trkpt>
      <trkpt lat="42.73314" lon="9.20916">
        <ele>1.11</ele>
        <time>2017-06-01T12:22:57Z</time>
      </trkpt>
      <trkpt lat="42.73322" lon="9.2096">
        <ele>1.35</ele>
        <time>2017-06-01T12:23:13Z</time>
      </trkpt>
      <trkpt lat="42.73326" lon="9.20994">
        <ele>1.09</ele>
        <time>2017-06-01T12:23:25Z</time>
      </trkpt>
      <trkpt lat="42.73334" lon="9.21036">
        <ele>1.01</ele>
        <time>2017-06-01T12:23:40Z</time>
      </trkpt>
      <trkpt lat="42.7334" lon="9.21065">
        <ele>0.95</ele>
        <time>2017-06-01T12:23:51Z</time>
      </trkpt>
      <trkpt lat="42.7335" lon="9.21105">
        <ele>0.59</ele>
        <time>2017-06-01T12:24:06Z</time>
      </trkpt>
      <trkpt lat="42.73361" lon="9.21145">
        <ele>0.49</ele>
        <time>2017-06-01T12:24:21Z</time>
      </trkpt>
      <trkpt lat="42.73374" lon="9.21186">
        <ele>0.89</ele>
        <time>2017-06-01T12:24:37Z</time>
      </trkpt>
      <trkpt lat="42.73386" lon="9.21221">
        <ele>0.57</ele>
        <time>2017-06-01T12:24:50Z</time>
      </trkpt>
      <trkpt lat="42.73398" lon="9.2126">
        <ele>0.37</ele>
        <time>2017-06-01T12:25:05Z</time>
      </trkpt>
      <trkpt lat="42.73415" lon="9.21298">
        <ele>0.39</ele>
        <time>2017-06-01T12:25:21Z</time>
      </trkpt>
      <trkpt lat="42.73423" lon="9.21337">
        <ele>0.18</ele>
        <time>2017-06-01T12:25:35Z</time>
      </trkpt>
      <trkpt lat="42.73429" lon="9.21385">
        <ele>0.2</ele>
        <time>2017-06-01T12:25:51Z</time>
      </trkpt>
      <trkpt lat="42.73435" lon="9.21428">
        <ele>-0.07</ele>
        <time>2017-06-01T12:26:06Z</time>
      </trkpt>
      <trkpt lat="42.73441" lon="9.21473">
        <ele>0.12</ele>
        <time>2017-06-01T12:26:22Z</time>
      </trkpt>
      <trkpt lat="42.73449" lon="9.21503">
        <ele>0.2</ele>
        <time>2017-06-01T12:26:33Z</time>
      </trkpt>
      <trkpt lat="42.73454" lon="9.21518">
        <ele>0.32</ele>
        <time>2017-06-01T12:26:39Z</time>
      </trkpt>
      <trkpt lat="42.73456" lon="9.21535">
        <ele>0.27</ele>
        <time>2017-06-01T12:26:45Z</time>
      </trkpt>
      <trkpt lat="42.73467" lon="9.21572">
        <ele>0.12</ele>
        <time>2017-06-01T12:26:59Z</time>
      </trkpt>
      <trkpt lat="42.73472" lon="9.21609">
        <ele>-0.14</ele>
        <time>2017-06-01T12:27:12Z</time>
      </trkpt>
      <trkpt lat="42.73481" lon="9.21655">
        <ele>-0.1</ele>
        <time>2017-06-01T12:27:28Z</time>
      </trkpt>
      <trkpt lat="42.73493" lon="9.21693">
        <time>2017-06-01T12:27:42Z</time>
      </trkpt>
      <trkpt lat="42.73505" lon="9.21731">
        <ele>0.05</ele>
        <time>2017-06-01T12:27:56Z</time>
      </trkpt>
      <trkpt lat="42.73517" lon="9.21777">
        <ele>-0.37</ele>
        <time>2017-06-01T12:28:12Z</time>
      </trkpt>
      <trkpt lat="42.73529" lon="9.21812">
        <ele>-0.33</ele>
        <time>2017-06-01T12:28:25Z</time>
      </trkpt>
      <trkpt lat="42.73542" lon="9.21846">
        <ele>-0.46</ele>
        <time>2017-06-01T12:28:38Z</time>
      </trkpt>
      <trkpt lat="42.73558" lon="9.21882">
        <ele>-0.35</ele>
        <time>2017-06-01T12:28:52Z</time>
      </trkpt>
      <trkpt lat="42.73572" lon="9.21919">
        <ele>-0.6</ele>
        <time>2017-06-01T12:29:06Z</time>
      </trkpt>
      <trkpt lat="42.73584" lon="9.21958">
        <ele>-0.55</ele>
        <time>2017-06-01T12:29:22Z</time>
      </trkpt>
      <trkpt lat="42.73593" lon="9.21991">
        <ele>-0.72</ele>
        <time>2017-06-01T12:29:35Z</time>
      </trkpt>
      <trkpt lat="42.73603" lon="9.22028">
        <ele>-0.58</ele>
        <time>2017-06-01T12:29:49Z</time>
      </trkpt>
      <trkpt lat="42.73607" lon="9.22064">
        <ele>-0.56</ele>
        <time>2017-06-01T12:30:02Z</time>
      </trkpt>
      <trkpt lat="42.73607" lon="9.22072">
        <ele>-0.62</ele>
        <time>2017-06-01T12:30:05Z</time>
      </trkpt>
      <trkpt lat="42.73598" lon="9.221">
        <ele>-0.7</ele>
        <time>2017-06-01T12:30:20Z</time>
      </trkpt>
      <trkpt lat="42.73589" lon="9.22116">
        <ele>-0.71</ele>
        <time>2017-06-01T12:30:37Z</time>
      </trkpt>
      <trkpt lat="42.73588" lon="9.22116">
        <ele>-0.74</ele>
        <time>2017-06-01T12:30:38Z</time>
      </trkpt>
      <trkpt lat="42.73583" lon="9.22119">
        <ele>-0.74</ele>
        <time>2017-06-01T12:31:05Z</time>
      </trkpt>
      <trkpt lat="42.73579" lon="9.22122">
        <ele>-0.84</ele>
        <time>2017-06-01T12:31:30Z</time>
      </trkpt>
      <trkpt lat="42.73578" lon="9.22147">
        <ele>-0.94</ele>
        <time>2017-06-01T12:31:55Z</time>
      </trkpt>
      <trkpt lat="42.7358" lon="9.2219">
        <ele>-1.12</ele>
        <time>2017-06-01T12:32:22Z</time>
      </trkpt>
      <trkpt lat="42.73572" lon="9.22225">
        <ele>-1.06</ele>
        <time>2017-06-01T12:32:38Z</time>
      </trkpt>
      <trkpt lat="42.73557" lon="9.22257">
        <ele>-1.41</ele>
        <time>2017-06-01T12:32:55Z</time>
      </trkpt>
      <trkpt lat="42.73538" lon="9.2229">
        <ele>-1.62</ele>
        <time>2017-06-01T12:33:10Z</time>
      </trkpt>
      <trkpt lat="42.73535" lon="9.22295">
        <ele>-1.53</ele>
        <time>2017-06-01T12:33:12Z</time>
      </trkpt>
      <trkpt lat="42.73518" lon="9.22324">
        <ele>-1.52</ele>
        <time>2017-06-01T12:33:25Z</time>
      </trkpt>
      <trkpt lat="42.73492" lon="9.22344">
        <ele>-1.58</ele>
        <time>2017-06-01T12:33:38Z</time>
      </trkpt>
      <trkpt lat="42.73467" lon="9.22364">
        <ele>-1.38</ele>
        <time>2017-06-01T12:33:51Z</time>
      </trkpt>
      <trkpt lat="42.73445" lon="9.2238">
        <ele>-2.16</ele>
        <time>2017-06-01T12:34:03Z</time>
      </trkpt>
      <trkpt lat="42.73418" lon="9.22405">
        <ele>-1.28</ele>
        <time>2017-06-01T12:34:18Z</time>
      </trkpt>
      <trkpt lat="42.73394" lon="9.22419">
        <ele>-1.61</ele>
        <time>2017-06-01T12:34:31Z</time>
      </trkpt>
      <trkpt lat="42.73373" lon="9.22433">
        <ele>-1.53</ele>
        <time>2017-06-01T12:34:45Z</time>
      </trkpt>
      <trkpt lat="42.73351" lon="9.22454">
        <ele>-1.71</ele>
        <time>2017-06-01T12:34:57Z</time>
      </trkpt>
      <trkpt lat="42.7332" lon="9.22479">
        <ele>-1.9</ele>
        <time>2017-06-01T12:35:12Z</time>
      </trkpt>
      <trkpt lat="42.73293" lon="9.22497">
        <ele>-1.97</ele>
        <time>2017-06-01T12:35:25Z</time>
      </trkpt>
      <trkpt lat="42.73266" lon="9.22511">
        <ele>-1.93</ele>
        <time>2017-06-01T12:35:38Z</time>
      </trkpt>
      <trkpt lat="42.7325" lon="9.22521">
        <ele>-2.09</ele>
        <time>2017-06-01T12:35:51Z</time>
      </trkpt>
      <trkpt lat="42.73241" lon="9.2252">
        <ele>-1.49</ele>
        <time>2017-06-01T12:36:11Z</time>
      </trkpt>
      <trkpt lat="42.73215" lon="9.22528">
        <ele>-1.82</ele>
        <time>2017-06-01T12:36:28Z</time>
      </trkpt>
      <trkpt lat="42.7319" lon="9.22552">
        <ele>-1.99</ele>
        <time>2017-06-01T12:36:43Z</time>
      </trkpt>
      <trkpt lat="42.7316" lon="9.22585">
        <ele>-1.94</ele>
        <time>2017-06-01T12:37:01Z</time>
      </trkpt>
      <trkpt lat="42.73136" lon="9.22603">
        <ele>-1.67</ele>
        <time>2017-06-01T12:37:14Z</time>
      </trkpt>
      <trkpt lat="42.73106" lon="9.22624">
        <ele>-1.96</ele>
        <time>2017-06-01T12:37:29Z</time>
      </trkpt>
      <trkpt lat="42.73073" lon="9.2265">
        <ele>-2</ele>
        <time>2017-06-01T12:37:46Z</time>
      </trkpt>
      <trkpt lat="42.73044" lon="9.22689">
        <ele>-2.23</ele>
        <time>2017-06-01T12:38:04Z</time>
      </trkpt>
      <trkpt lat="42.73012" lon="9.22727">
        <ele>-2.2</ele>
        <time>2017-06-01T12:38:24Z</time>
      </trkpt>
      <trkpt lat="42.72987" lon="9.22753">
        <ele>-2.03</ele>
        <time>2017-06-01T12:38:38Z</time>
      </trkpt>
      <trkpt lat="42.72964" lon="9.22779">
        <ele>-2.24</ele>
        <time>2017-06-01T12:38:51Z</time>
      </trkpt>
      <trkpt lat="42.7294" lon="9.22805">
        <ele>-2.17</ele>
        <time>2017-06-01T12:39:06Z</time>
      </trkpt>
      <trkpt lat="42.72916" lon="9.22833">
        <ele>-2.03</ele>
        <time>2017-06-01T12:39:21Z</time>
      </trkpt>
      <trkpt lat="42.72893" lon="9.22868">
        <ele>-1.97</ele>
        <time>2017-06-01T12:39:37Z</time>
      </trkpt>
      <trkpt lat="42.72868" lon="9.229">
        <ele>-1.96</ele>
        <time>2017-06-01T12:39:52Z</time>
      </trkpt>
      <trkpt lat="42.72845" lon="9.2294">
        <ele>-1.56</ele>
        <time>2017-06-01T12:40:09Z</time>
      </trkpt>
      <trkpt lat="42.72822" lon="9.22965">
        <ele>-1.73</ele>
        <time>2017-06-01T12:40:22Z</time>
      </trkpt>
      <trkpt lat="42.72791" lon="9.22996">
        <ele>-1.99</ele>
        <time>2017-06-01T12:40:39Z</time>
      </trkpt>
      <trkpt lat="42.7276" lon="9.23024">
        <ele>-2.02</ele>
        <time>2017-06-01T12:40:56Z</time>
      </trkpt>
      <trkpt lat="42.72734" lon="9.23052">
        <ele>-1.97</ele>
        <time>2017-06-01T12:41:11Z</time>
      </trkpt>
      <trkpt lat="42.72708" lon="9.23083">
        <ele>-2.17</ele>
        <time>2017-06-01T12:41:27Z</time>
      </trkpt>
      <trkpt lat="42.72684" lon="9.23111">
        <ele>-1.96</ele>
        <time>2017-06-01T12:41:41Z</time>
      </trkpt>
      <trkpt lat="42.72656" lon="9.23143">
        <ele>-2.17</ele>
        <time>2017-06-01T12:41:58Z</time>
      </trkpt>
      <trkpt lat="42.72628" lon="9.23169">
        <ele>-1.92</ele>
        <time>2017-06-01T12:42:14Z</time>
      </trkpt>
      <trkpt lat="42.72602" lon="9.23197">
        <ele>-2.07</ele>
        <time>2017-06-01T12:42:30Z</time>
      </trkpt>
      <trkpt lat="42.72578" lon="9.23224">
        <ele>-2.41</ele>
        <time>2017-06-01T12:42:45Z</time>
      </trkpt>
      <trkpt lat="42.72554" lon="9.23248">
        <ele>-2.16</ele>
        <time>2017-06-01T12:43:00Z</time>
      </trkpt>
      <trkpt lat="42.72529" lon="9.23269">
        <ele>-2.34</ele>
        <time>2017-06-01T12:43:14Z</time>
      </trkpt>
      <trkpt lat="42.725" lon="9.23288">
        <ele>-2.34</ele>
        <time>2017-06-01T12:43:29Z</time>
      </trkpt>
      <trkpt lat="42.72468" lon="9.2331">
        <ele>-2.39</ele>
        <time>2017-06-01T12:43:45Z</time>
      </trkpt>
      <trkpt lat="42.72443" lon="9.23328">
        <ele>-2.55</ele>
        <time>2017-06-01T12:43:59Z</time>
      </trkpt>
      <trkpt lat="42.72413" lon="9.23329">
        <ele>-2.53</ele>
        <time>2017-06-01T12:44:13Z</time>
      </trkpt>
      <trkpt lat="42.72382" lon="9.23338">
        <ele>-2.55</ele>
        <time>2017-06-01T12:44:28Z</time>
      </trkpt>
      <trkpt lat="42.72351" lon="9.23365">
        <ele>-3.01</ele>
        <time>2017-06-01T12:44:44Z</time>
      </trkpt>
      <trkpt lat="42.72326" lon="9.23397">
        <ele>-3.06</ele>
        <time>2017-06-01T12:44:59Z</time>
      </trkpt>
      <trkpt lat="42.72303" lon="9.23425">
        <ele>-3.08</ele>
        <time>2017-06-01T12:45:13Z</time>
      </trkpt>
      <trkpt lat="42.72283" lon="9.23451">
        <ele>-3.17</ele>
        <time>2017-06-01T12:45:26Z</time>
      </trkpt>
      <trkpt lat="42.72264" lon="9.23478">
        <ele>-3.07</ele>
        <time>2017-06-01T12:45:41Z</time>
      </trkpt>
      <trkpt lat="42.72248" lon="9.23512">
        <ele>-3.19</ele>
        <time>2017-06-01T12:45:57Z</time>
      </trkpt>
      <trkpt lat="42.72243" lon="9.23526">
        <ele>-3.2</ele>
        <time>2017-06-01T12:46:04Z</time>
      </trkpt>
      <trkpt lat="42.72241" lon="9.2353">
        <ele>-3.23</ele>
        <time>2017-06-01T12:46:07Z</time>
      </trkpt>
      <trkpt lat="42.72237" lon="9.23543">
        <ele>-3.46</ele>
        <time>2017-06-01T12:46:25Z</time>
      </trkpt>
      <trkpt lat="42.72237" lon="9.23559">
        <ele>-3.5</ele>
        <time>2017-06-01T12:46:45Z</time>
      </trkpt>
      <trkpt lat="42.72238" lon="9.23562">
        <ele>-3.48</ele>
        <time>2017-06-01T12:46:47Z</time>
      </trkpt>
      <trkpt lat="42.72239" lon="9.23569">
        <ele>-3.29</ele>
        <time>2017-06-01T12:46:51Z</time>
      </trkpt>
      <trkpt lat="42.72244" lon="9.23595">
        <ele>-3.69</ele>
        <time>2017-06-01T12:47:09Z</time>
      </trkpt>
      <trkpt lat="42.72244" lon="9.23599">
        <ele>-3.68</ele>
        <time>2017-06-01T12:47:11Z</time>
      </trkpt>
      <trkpt lat="42.72243" lon="9.23607">
        <ele>-3.62</ele>
        <time>2017-06-01T12:47:15Z</time>
      </trkpt>
      <trkpt lat="42.72233" lon="9.23656">
        <ele>-3.73</ele>
        <time>2017-06-01T12:47:34Z</time>
      </trkpt>
      <trkpt lat="42.72221" lon="9.23695">
        <ele>-3.57</ele>
        <time>2017-06-01T12:47:49Z</time>
      </trkpt>
      <trkpt lat="42.72207" lon="9.23739">
        <ele>-3.93</ele>
        <time>2017-06-01T12:48:06Z</time>
      </trkpt>
      <trkpt lat="42.72199" lon="9.23785">
        <ele>-3.85</ele>
        <time>2017-06-01T12:48:22Z</time>
      </trkpt>
      <trkpt lat="42.72191" lon="9.23824">
        <ele>-3.68</ele>
        <time>2017-06-01T12:48:36Z</time>
      </trkpt>
      <trkpt lat="42.72176" lon="9.23859">
        <ele>-3.73</ele>
        <time>2017-06-01T12:48:51Z</time>
      </trkpt>
      <trkpt lat="42.72163" lon="9.23898">
        <ele>-3.73</ele>
        <time>2017-06-01T12:49:07Z</time>
      </trkpt>
      <trkpt lat="42.72156" lon="9.2393">
        <ele>-3.87</ele>
        <time>2017-06-01T12:49:20Z</time>
      </trkpt>
      <trkpt lat="42.7215" lon="9.2397">
        <ele>-3.79</ele>
        <time>2017-06-01T12:49:34Z</time>
      </trkpt>
      <trkpt lat="42.7214" lon="9.24019">
        <ele>-3.89</ele>
        <time>2017-06-01T12:49:51Z</time>
      </trkpt>
      <trkpt lat="42.72134" lon="9.24064">
        <ele>-3.78</ele>
        <time>2017-06-01T12:50:06Z</time>
      </trkpt>
      <trkpt lat="42.72124" lon="9.24111">
        <ele>-3.62</ele>
        <time>2017-06-01T12:50:22Z</time>
      </trkpt>
      <trkpt lat="42.72116" lon="9.24157">
        <ele>-3.74</ele>
        <time>2017-06-01T12:50:37Z</time>
      </trkpt>
      <trkpt lat="42.72105" lon="9.24201">
        <ele>-3.48</ele>
        <time>2017-06-01T12:50:52Z</time>
      </trkpt>
      <trkpt lat="42.72096" lon="9.24236">
        <ele>-3.62</ele>
        <time>2017-06-01T12:51:04Z</time>
      </trkpt>
      <trkpt lat="42.72085" lon="9.2428">
        <ele>-3.78</ele>
        <time>2017-06-01T12:51:19Z</time>
      </trkpt>
      <trkpt lat="42.72078" lon="9.24318">
        <ele>-3.9</ele>
        <time>2017-06-01T12:51:32Z</time>
      </trkpt>
      <trkpt lat="42.72075" lon="9.24333">
        <ele>-3.7</ele>
        <time>2017-06-01T12:51:37Z</time>
      </trkpt>
      <trkpt lat="42.72068" lon="9.24387">
        <ele>-3.68</ele>
        <time>2017-06-01T12:51:57Z</time>
      </trkpt>
      <trkpt lat="42.72064" lon="9.24429">
        <ele>-3.87</ele>
        <time>2017-06-01T12:52:12Z</time>
      </trkpt>
      <trkpt lat="42.72057" lon="9.24466">
        <ele>-3.7</ele>
        <time>2017-06-01T12:52:25Z</time>
      </trkpt>
      <trkpt lat="42.72051" lon="9.24508">
        <ele>-4.16</ele>
        <time>2017-06-01T12:52:40Z</time>
      </trkpt>
      <trkpt lat="42.72048" lon="9.24546">
        <ele>-4.27</ele>
        <time>2017-06-01T12:52:55Z</time>
      </trkpt>
      <trkpt lat="42.72047" lon="9.24572">
        <ele>-4.07</ele>
        <time>2017-06-01T12:53:06Z</time>
      </trkpt>
      <trkpt lat="42.72042" lon="9.24602">
        <ele>-4.02</ele>
        <time>2017-06-01T12:53:21Z</time>
      </trkpt>
      <trkpt lat="42.72044" lon="9.24607">
        <ele>-3.5</ele>
        <time>2017-06-01T12:53:40Z</time>
      </trkpt>
      <trkpt lat="42.72044" lon="9.24612">
        <ele>-3.27</ele>
        <time>2017-06-01T12:54:02Z</time>
      </trkpt>
      <trkpt lat="42.72044" lon="9.24617">
        <ele>-2.99</ele>
        <time>2017-06-01T12:54:26Z</time>
      </trkpt>
      <trkpt lat="42.7204" lon="9.24616">
        <ele>-2.16</ele>
        <time>2017-06-01T12:54:49Z</time>
      </trkpt>
      <trkpt lat="42.72042" lon="9.24615">
        <ele>-2.4</ele>
        <time>2017-06-01T12:55:06Z</time>
      </trkpt>
      <trkpt lat="42.72041" lon="9.24617">
        <ele>-3.08</ele>
        <time>2017-06-01T12:55:25Z</time>
      </trkpt>
      <trkpt lat="42.72042" lon="9.24617">
        <ele>-3.43</ele>
        <time>2017-06-01T12:56:14Z</time>
      </trkpt>
      <trkpt lat="42.72042" lon="9.24616">
        <ele>-3.4</ele>
        <time>2017-06-01T12:57:02Z</time>
      </trkpt>
      <trkpt lat="42.72042" lon="9.24615">
        <ele>-3.29</ele>
        <time>2017-06-01T12:58:06Z</time>
      </trkpt>
      <trkpt lat="42.72042" lon="9.24616">
        <ele>-3.19</ele>
        <time>2017-06-01T12:58:40Z</time>
      </trkpt>
      <trkpt lat="42.72042" lon="9.24614">
        <ele>-2.83</ele>
        <time>2017-06-01T12:59:25Z</time>
      </trkpt>
      <trkpt lat="42.72042" lon="9.24612">
        <ele>-2.98</ele>
        <time>2017-06-01T13:00:34Z</time>
      </trkpt>
      <trkpt lat="42.72042" lon="9.24613">
        <ele>-2.8</ele>
        <time>2017-06-01T13:01:34Z</time>
      </trkpt>
      <trkpt lat="42.72042" lon="9.24613">
        <ele>-2.55</ele>
        <time>2017-06-01T13:02:08Z</time>
      </trkpt>
      <trkpt lat="42.72042" lon="9.24613">
        <ele>-2.66</ele>
        <time>2017-06-01T13:02:39Z</time>
      </trkpt>
      <trkpt lat="42.72044" lon="9.24614">
        <ele>-2.7</ele>
        <time>2017-06-01T13:03:06Z</time>
      </trkpt>
      <trkpt lat="42.72043" lon="9.24614">
        <ele>-2.5</ele>
        <time>2017-06-01T13:03:36Z</time>
      </trkpt>
      <trkpt lat="42.72044" lon="9.24612">
        <ele>-2.62</ele>
        <time>2017-06-01T13:04:11Z</time>
      </trkpt>
      <trkpt lat="42.72044" lon="9.24613">
        <ele>-2.93</ele>
        <time>2017-06-01T13:04:41Z</time>
      </trkpt>
      <trkpt lat="42.72044" lon="9.24612">
        <ele>-2.66</ele>
        <time>2017-06-01T13:05:14Z</time>
      </trkpt>
      <trkpt lat="42.72045" lon="9.24612">
        <ele>-3.02</ele>
        <time>2017-06-01T13:05:48Z</time>
      </trkpt>
      <trkpt lat="42.72044" lon="9.24612">
        <ele>-3.03</ele>
        <time>2017-06-01T13:06:23Z</time>
      </trkpt>
      <trkpt lat="42.72044" lon="9.2461">
        <ele>-3.12</ele>
        <time>2017-06-01T13:06:54Z</time>
      </trkpt>
      <trkpt lat="42.72044" lon="9.24612">
        <ele>-3.28</ele>
        <time>2017-06-01T13:07:27Z</time>
      </trkpt>
      <trkpt lat="42.72045" lon="9.24611">
        <ele>-3.77</ele>
        <time>2017-06-01T13:07:59Z</time>
      </trkpt>
      <trkpt lat="42.72045" lon="9.24612">
        <ele>-3.85</ele>
        <time>2017-06-01T13:08:36Z</time>
      </trkpt>
      <trkpt lat="42.72044" lon="9.24614">
        <ele>-3.87</ele>
        <time>2017-06-01T13:09:09Z</time>
      </trkpt>
      <trkpt lat="42.72043" lon="9.24613">
        <ele>-3.87</ele>
        <time>2017-06-01T13:09:42Z</time>
      </trkpt>
      <trkpt lat="42.72043" lon="9.24612">
        <ele>-4.02</ele>
        <time>2017-06-01T13:10:30Z</time>
      </trkpt>
      <trkpt lat="42.72043" lon="9.24611">
        <ele>-4.15</ele>
        <time>2017-06-01T13:11:20Z</time>
      </trkpt>
      <trkpt lat="42.72042" lon="9.2461">
        <ele>-4.36</ele>
        <time>2017-06-01T13:12:04Z</time>
      </trkpt>
      <trkpt lat="42.72043" lon="9.2461">
        <ele>-4.05</ele>
        <time>2017-06-01T13:12:55Z</time>
      </trkpt>
      <trkpt lat="42.72043" lon="9.24611">
        <ele>-4.4</ele>
        <time>2017-06-01T13:13:46Z</time>
      </trkpt>
      <trkpt lat="42.72043" lon="9.2461">
        <ele>-4.62</ele>
        <time>2017-06-01T13:14:48Z</time>
      </trkpt>
      <trkpt lat="42.72043" lon="9.24611">
        <ele>-4.64</ele>
        <time>2017-06-01T13:15:43Z</time>
      </trkpt>
      <trkpt lat="42.72043" lon="9.2461">
        <ele>-4.94</ele>
        <time>2017-06-01T13:16:35Z</time>
      </trkpt>
      <trkpt lat="42.72042" lon="9.2461">
        <ele>-4.85</ele>
        <time>2017-06-01T13:17:29Z</time>
      </trkpt>
      <trkpt lat="42.72043" lon="9.24612">
        <ele>-4.74</ele>
        <time>2017-06-01T13:18:05Z</time>
      </trkpt>
      <trkpt lat="42.72042" lon="9.24612">
        <ele>-4.77</ele>
        <time>2017-06-01T13:18:51Z</time>
      </trkpt>
      <trkpt lat="42.72043" lon="9.24612">
        <ele>-4.76</ele>
        <time>2017-06-01T13:19:28Z</time>
      </trkpt>
      <trkpt lat="42.7204" lon="9.24615">
        <ele>-3.53</ele>
        <time>2017-06-01T13:19:51Z</time>
      </trkpt>
      <trkpt lat="42.72037" lon="9.24617">
        <ele>-3.88</ele>
        <time>2017-06-01T13:20:14Z</time>
      </trkpt>
      <trkpt lat="42.72037" lon="9.24611">
        <ele>-3.95</ele>
        <time>2017-06-01T13:20:35Z</time>
      </trkpt>
      <trkpt lat="42.72039" lon="9.24604">
        <ele>-4.58</ele>
        <time>2017-06-01T13:21:02Z</time>
      </trkpt>
      <trkpt lat="42.72038" lon="9.24601">
        <ele>-4.68</ele>
        <time>2017-06-01T13:21:22Z</time>
      </trkpt>
      <trkpt lat="42.72038" lon="9.24601">
        <ele>-4.5</ele>
        <time>2017-06-01T13:21:46Z</time>
      </trkpt>
      <trkpt lat="42.7204" lon="9.24596">
        <ele>-4.66</ele>
        <time>2017-06-01T13:22:08Z</time>
      </trkpt>
      <trkpt lat="42.72047" lon="9.24582">
        <ele>-4.45</ele>
        <time>2017-06-01T13:22:32Z</time>
      </trkpt>
      <trkpt lat="42.72063" lon="9.24572">
        <ele>-4.15</ele>
        <time>2017-06-01T13:22:51Z</time>
      </trkpt>
      <trkpt lat="42.72081" lon="9.24569">
        <ele>-4.04</ele>
        <time>2017-06-01T13:23:05Z</time>
      </trkpt>
      <trkpt lat="42.72096" lon="9.24566">
        <ele>-4.03</ele>
        <time>2017-06-01T13:23:18Z</time>
      </trkpt>
      <trkpt lat="42.72122" lon="9.24583">
        <ele>-4.14</ele>
        <time>2017-06-01T13:23:37Z</time>
      </trkpt>
      <trkpt lat="42.72145" lon="9.24607">
        <ele>-4.17</ele>
        <time>2017-06-01T13:23:53Z</time>
      </trkpt>
      <trkpt lat="42.72162" lon="9.24629">
        <ele>-3.83</ele>
        <time>2017-06-01T13:24:08Z</time>
      </trkpt>
      <trkpt lat="42.72176" lon="9.24653">
        <ele>-3.68</ele>
        <time>2017-06-01T13:24:22Z</time>
      </trkpt>
      <trkpt lat="42.7218" lon="9.24663">
        <ele>-3.69</ele>
        <time>2017-06-01T13:24:27Z</time>
      </trkpt>
      <trkpt lat="42.72176" lon="9.24698">
        <ele>-3.48</ele>
        <time>2017-06-01T13:24:43Z</time>
      </trkpt>
      <trkpt lat="42.72163" lon="9.24725">
        <ele>-3.2</ele>
        <time>2017-06-01T13:24:57Z</time>
      </trkpt>
      <trkpt lat="42.72149" lon="9.24752">
        <ele>-3.11</ele>
        <time>2017-06-01T13:25:12Z</time>
      </trkpt>
      <trkpt lat="42.72134" lon="9.24784">
        <ele>-3.2</ele>
        <time>2017-06-01T13:25:28Z</time>
      </trkpt>
      <trkpt lat="42.72119" lon="9.2482">
        <ele>-3.18</ele>
        <time>2017-06-01T13:25:44Z</time>
      </trkpt>
      <trkpt lat="42.72109" lon="9.24857">
        <ele>-3.41</ele>
        <time>2017-06-01T13:25:59Z</time>
      </trkpt>
      <trkpt lat="42.72097" lon="9.249">
        <ele>-3.43</ele>
        <time>2017-06-01T13:26:17Z</time>
      </trkpt>
      <trkpt lat="42.72083" lon="9.24934">
        <ele>-3.41</ele>
        <time>2017-06-01T13:26:33Z</time>
      </trkpt>
      <trkpt lat="42.72064" lon="9.24974">
        <ele>-3.53</ele>
        <time>2017-06-01T13:26:51Z</time>
      </trkpt>
      <trkpt lat="42.72054" lon="9.25012">
        <ele>-3.46</ele>
        <time>2017-06-01T13:27:09Z</time>
      </trkpt>
      <trkpt lat="42.72045" lon="9.25049">
        <ele>-3.76</ele>
        <time>2017-06-01T13:27:24Z</time>
      </trkpt>
      <trkpt lat="42.72027" lon="9.25083">
        <ele>-3.7</ele>
        <time>2017-06-01T13:27:42Z</time>
      </trkpt>
      <trkpt lat="42.72016" lon="9.2512">
        <ele>-3.68</ele>
        <time>2017-06-01T13:27:59Z</time>
      </trkpt>
      <trkpt lat="42.72008" lon="9.25159">
        <ele>-3.72</ele>
        <time>2017-06-01T13:28:15Z</time>
      </trkpt>
      <trkpt lat="42.72007" lon="9.25192">
        <ele>-3.74</ele>
        <time>2017-06-01T13:28:29Z</time>
      </trkpt>
      <trkpt lat="42.72002" lon="9.25217">
        <ele>-3.61</ele>
        <time>2017-06-01T13:28:42Z</time>
      </trkpt>
      <trkpt lat="42.71989" lon="9.25254">
        <ele>-3.82</ele>
        <time>2017-06-01T13:28:58Z</time>
      </trkpt>
      <trkpt lat="42.71971" lon="9.25293">
        <ele>-4.26</ele>
        <time>2017-06-01T13:29:16Z</time>
      </trkpt>
      <trkpt lat="42.71955" lon="9.25334">
        <ele>-4.02</ele>
        <time>2017-06-01T13:29:32Z</time>
      </trkpt>
      <trkpt lat="42.71937" lon="9.25377">
        <ele>-4.41</ele>
        <time>2017-06-01T13:29:49Z</time>
      </trkpt>
      <trkpt lat="42.71925" lon="9.25417">
        <ele>-4.35</ele>
        <time>2017-06-01T13:30:04Z</time>
      </trkpt>
      <trkpt lat="42.71916" lon="9.25463">
        <ele>-4.56</ele>
        <time>2017-06-01T13:30:21Z</time>
      </trkpt>
      <trkpt lat="42.71906" lon="9.25514">
        <ele>-4.66</ele>
        <time>2017-06-01T13:30:39Z</time>
      </trkpt>
      <trkpt lat="42.71893" lon="9.25553">
        <ele>-4.91</ele>
        <time>2017-06-01T13:30:54Z</time>
      </trkpt>
      <trkpt lat="42.71883" lon="9.25596">
        <ele>-4.89</ele>
        <time>2017-06-01T13:31:09Z</time>
      </trkpt>
      <trkpt lat="42.71865" lon="9.25638">
        <ele>-4.97</ele>
        <time>2017-06-01T13:31:26Z</time>
      </trkpt>
      <trkpt lat="42.71854" lon="9.25672">
        <ele>-5.01</ele>
        <time>2017-06-01T13:31:43Z</time>
      </trkpt>
      <trkpt lat="42.71854" lon="9.25703">
        <ele>-4.86</ele>
        <time>2017-06-01T13:31:57Z</time>
      </trkpt>
      <trkpt lat="42.71836" lon="9.25739">
        <ele>-4.73</ele>
        <time>2017-06-01T13:32:14Z</time>
      </trkpt>
      <trkpt lat="42.71812" lon="9.25776">
        <ele>-4.89</ele>
        <time>2017-06-01T13:32:31Z</time>
      </trkpt>
      <trkpt lat="42.71782" lon="9.25786">
        <ele>-5.06</ele>
        <time>2017-06-01T13:32:46Z</time>
      </trkpt>
      <trkpt lat="42.71739" lon="9.2579">
        <ele>-5.25</ele>
        <time>2017-06-01T13:33:06Z</time>
      </trkpt>
      <trkpt lat="42.71693" lon="9.25796">
        <ele>-5.08</ele>
        <time>2017-06-01T13:33:27Z</time>
      </trkpt>
      <trkpt lat="42.71649" lon="9.25805">
        <ele>-5.37</ele>
        <time>2017-06-01T13:33:47Z</time>
      </trkpt>
      <trkpt lat="42.71608" lon="9.25824">
        <ele>-5.56</ele>
        <time>2017-06-01T13:34:06Z</time>
      </trkpt>
      <trkpt lat="42.71576" lon="9.25836">
        <ele>-5.49</ele>
        <time>2017-06-01T13:34:21Z</time>
      </trkpt>
      <trkpt lat="42.7154" lon="9.25851">
        <ele>-5.57</ele>
        <time>2017-06-01T13:34:38Z</time>
      </trkpt>
      <trkpt lat="42.71503" lon="9.25859">
        <ele>-5.65</ele>
        <time>2017-06-01T13:34:55Z</time>
      </trkpt>
      <trkpt lat="42.7146" lon="9.25868">
        <ele>-5.68</ele>
        <time>2017-06-01T13:35:14Z</time>
      </trkpt>
      <trkpt lat="42.71421" lon="9.25877">
        <ele>-5.75</ele>
        <time>2017-06-01T13:35:32Z</time>
      </trkpt>
      <trkpt lat="42.7138" lon="9.25893">
        <ele>-5.47</ele>
        <time>2017-06-01T13:35:51Z</time>
      </trkpt>
      <trkpt lat="42.71344" lon="9.25908">
        <ele>-5.57</ele>
        <time>2017-06-01T13:36:08Z</time>
      </trkpt>
      <trkpt lat="42.71305" lon="9.25926">
        <ele>-5.51</ele>
        <time>2017-06-01T13:36:27Z</time>
      </trkpt>
      <trkpt lat="42.71268" lon="9.25949">
        <ele>-5.66</ele>
        <time>2017-06-01T13:36:46Z</time>
      </trkpt>
      <trkpt lat="42.71224" lon="9.25976">
        <ele>-5.71</ele>
        <time>2017-06-01T13:37:08Z</time>
      </trkpt>
      <trkpt lat="42.7119" lon="9.26003">
        <ele>-5.62</ele>
        <time>2017-06-01T13:37:27Z</time>
      </trkpt>
      <trkpt lat="42.71159" lon="9.26028">
        <ele>-5.8</ele>
        <time>2017-06-01T13:37:44Z</time>
      </trkpt>
      <trkpt lat="42.7112" lon="9.26056">
        <ele>-5.71</ele>
        <time>2017-06-01T13:38:06Z</time>
      </trkpt>
      <trkpt lat="42.71085" lon="9.26089">
        <ele>-5.62</ele>
        <time>2017-06-01T13:38:26Z</time>
      </trkpt>
      <trkpt lat="42.71059" lon="9.26108">
        <ele>-5.45</ele>
        <time>2017-06-01T13:38:39Z</time>
      </trkpt>
      <trkpt lat="42.71023" lon="9.26135">
        <ele>-5.63</ele>
        <time>2017-06-01T13:38:59Z</time>
      </trkpt>
      <trkpt lat="42.70982" lon="9.26158">
        <ele>-5.47</ele>
        <time>2017-06-01T13:39:20Z</time>
      </trkpt>
      <trkpt lat="42.70942" lon="9.26183">
        <ele>-5.81</ele>
        <time>2017-06-01T13:39:41Z</time>
      </trkpt>
      <trkpt lat="42.70903" lon="9.26207">
        <ele>-5.57</ele>
        <time>2017-06-01T13:40:01Z</time>
      </trkpt>
      <trkpt lat="42.70866" lon="9.26232">
        <ele>-5.57</ele>
        <time>2017-06-01T13:40:21Z</time>
      </trkpt>
      <trkpt lat="42.70835" lon="9.26256">
        <ele>-5.44</ele>
        <time>2017-06-01T13:40:40Z</time>
      </trkpt>
      <trkpt lat="42.70802" lon="9.26282">
        <ele>-5.73</ele>
        <time>2017-06-01T13:40:59Z</time>
      </trkpt>
      <trkpt lat="42.70767" lon="9.26311">
        <ele>-5.68</ele>
        <time>2017-06-01T13:41:19Z</time>
      </trkpt>
      <trkpt lat="42.70732" lon="9.26347">
        <ele>-5.48</ele>
        <time>2017-06-01T13:41:41Z</time>
      </trkpt>
      <trkpt lat="42.70703" lon="9.26383">
        <ele>-5.71</ele>
        <time>2017-06-01T13:42:00Z</time>
      </trkpt>
      <trkpt lat="42.70679" lon="9.26411">
        <ele>-5.85</ele>
        <time>2017-06-01T13:42:15Z</time>
      </trkpt>
      <trkpt lat="42.70645" lon="9.2645">
        <ele>-5.77</ele>
        <time>2017-06-01T13:42:36Z</time>
      </trkpt>
      <trkpt lat="42.70611" lon="9.26488">
        <ele>-5.5</ele>
        <time>2017-06-01T13:42:55Z</time>
      </trkpt>
      <trkpt lat="42.70569" lon="9.26523">
        <ele>-5.64</ele>
        <time>2017-06-01T13:43:16Z</time>
      </trkpt>
      <trkpt lat="42.70529" lon="9.26564">
        <ele>-5.71</ele>
        <time>2017-06-01T13:43:38Z</time>
      </trkpt>
      <trkpt lat="42.70496" lon="9.266">
        <ele>-5.57</ele>
        <time>2017-06-01T13:43:56Z</time>
      </trkpt>
      <trkpt lat="42.70465" lon="9.26629">
        <ele>-5.84</ele>
        <time>2017-06-01T13:44:12Z</time>
      </trkpt>
      <trkpt lat="42.7043" lon="9.26657">
        <ele>-5.87</ele>
        <time>2017-06-01T13:44:29Z</time>
      </trkpt>
      <trkpt lat="42.70395" lon="9.26681">
        <ele>-6.02</ele>
        <time>2017-06-01T13:44:47Z</time>
      </trkpt>
      <trkpt lat="42.70362" lon="9.2671">
        <ele>-6.02</ele>
        <time>2017-06-01T13:45:03Z</time>
      </trkpt>
      <trkpt lat="42.70331" lon="9.2674">
        <ele>-6.12</ele>
        <time>2017-06-01T13:45:19Z</time>
      </trkpt>
      <trkpt lat="42.70299" lon="9.2677">
        <ele>-6.11</ele>
        <time>2017-06-01T13:45:36Z</time>
      </trkpt>
      <trkpt lat="42.70269" lon="9.26799">
        <ele>-5.71</ele>
        <time>2017-06-01T13:45:51Z</time>
      </trkpt>
      <trkpt lat="42.70238" lon="9.26844">
        <ele>-6.07</ele>
        <time>2017-06-01T13:46:11Z</time>
      </trkpt>
      <trkpt lat="42.70209" lon="9.26885">
        <ele>-6.24</ele>
        <time>2017-06-01T13:46:29Z</time>
      </trkpt>
      <trkpt lat="42.70171" lon="9.26934">
        <ele>-6.3</ele>
        <time>2017-06-01T13:46:51Z</time>
      </trkpt>
      <trkpt lat="42.70139" lon="9.26973">
        <ele>-6.52</ele>
        <time>2017-06-01T13:47:10Z</time>
      </trkpt>
      <trkpt lat="42.70106" lon="9.27016">
        <ele>-6.25</ele>
        <time>2017-06-01T13:47:29Z</time>
      </trkpt>
      <trkpt lat="42.70072" lon="9.27059">
        <ele>-6.23</ele>
        <time>2017-06-01T13:47:49Z</time>
      </trkpt>
      <trkpt lat="42.70038" lon="9.27088">
        <ele>-6.29</ele>
        <time>2017-06-01T13:48:07Z</time>
      </trkpt>
      <trkpt lat="42.69995" lon="9.27111">
        <ele>-5.99</ele>
        <time>2017-06-01T13:48:28Z</time>
      </trkpt>
      <trkpt lat="42.69956" lon="9.27128">
        <ele>-6.27</ele>
        <time>2017-06-01T13:48:46Z</time>
      </trkpt>
      <trkpt lat="42.69917" lon="9.2715">
        <ele>-6.42</ele>
        <time>2017-06-01T13:49:05Z</time>
      </trkpt>
      <trkpt lat="42.69879" lon="9.27169">
        <ele>-6.54</ele>
        <time>2017-06-01T13:49:22Z</time>
      </trkpt>
      <trkpt lat="42.69843" lon="9.27192">
        <ele>-6.55</ele>
        <time>2017-06-01T13:49:39Z</time>
      </trkpt>
      <trkpt lat="42.69808" lon="9.27226">
        <ele>-6.75</ele>
        <time>2017-06-01T13:49:57Z</time>
      </trkpt>
      <trkpt lat="42.69778" lon="9.27242">
        <ele>-6.51</ele>
        <time>2017-06-01T13:50:11Z</time>
      </trkpt>
      <trkpt lat="42.69744" lon="9.27266">
        <ele>-6.69</ele>
        <time>2017-06-01T13:50:28Z</time>
      </trkpt>
      <trkpt lat="42.69721" lon="9.27294">
        <ele>-6.68</ele>
        <time>2017-06-01T13:50:42Z</time>
      </trkpt>
      <trkpt lat="42.69698" lon="9.27321">
        <ele>-7.04</ele>
        <time>2017-06-01T13:50:56Z</time>
      </trkpt>
      <trkpt lat="42.69676" lon="9.2735">
        <ele>-6.93</ele>
        <time>2017-06-01T13:51:10Z</time>
      </trkpt>
      <trkpt lat="42.69656" lon="9.27383">
        <ele>-6.92</ele>
        <time>2017-06-01T13:51:24Z</time>
      </trkpt>
      <trkpt lat="42.69633" lon="9.27427">
        <ele>-6.72</ele>
        <time>2017-06-01T13:51:41Z</time>
      </trkpt>
      <trkpt lat="42.6961" lon="9.27467">
        <ele>-6.74</ele>
        <time>2017-06-01T13:51:58Z</time>
      </trkpt>
      <trkpt lat="42.69587" lon="9.27504">
        <ele>-6.65</ele>
        <time>2017-06-01T13:52:14Z</time>
      </trkpt>
      <trkpt lat="42.69563" lon="9.27541">
        <ele>-6.63</ele>
        <time>2017-06-01T13:52:30Z</time>
      </trkpt>
      <trkpt lat="42.69539" lon="9.27576">
        <ele>-6.39</ele>
        <time>2017-06-01T13:52:46Z</time>
      </trkpt>
      <trkpt lat="42.69512" lon="9.27612">
        <ele>-6.53</ele>
        <time>2017-06-01T13:53:02Z</time>
      </trkpt>
      <trkpt lat="42.69485" lon="9.27637">
        <ele>-6.45</ele>
        <time>2017-06-01T13:53:17Z</time>
      </trkpt>
      <trkpt lat="42.69448" lon="9.27659">
        <ele>-6.55</ele>
        <time>2017-06-01T13:53:35Z</time>
      </trkpt>
      <trkpt lat="42.69415" lon="9.27677">
        <ele>-6.42</ele>
        <time>2017-06-01T13:53:51Z</time>
      </trkpt>
      <trkpt lat="42.69378" lon="9.27693">
        <ele>-6.29</ele>
        <time>2017-06-01T13:54:08Z</time>
      </trkpt>
      <trkpt lat="42.69343" lon="9.27709">
        <ele>-6.34</ele>
        <time>2017-06-01T13:54:24Z</time>
      </trkpt>
      <trkpt lat="42.69307" lon="9.27733">
        <ele>-6.39</ele>
        <time>2017-06-01T13:54:43Z</time>
      </trkpt>
      <trkpt lat="42.69273" lon="9.27755">
        <ele>-6.13</ele>
        <time>2017-06-01T13:55:01Z</time>
      </trkpt>
      <trkpt lat="42.69237" lon="9.27781">
        <ele>-6.09</ele>
        <time>2017-06-01T13:55:19Z</time>
      </trkpt>
      <trkpt lat="42.69209" lon="9.27796">
        <ele>-6.04</ele>
        <time>2017-06-01T13:55:35Z</time>
      </trkpt>
      <trkpt lat="42.69188" lon="9.27803">
        <ele>-6.02</ele>
        <time>2017-06-01T13:55:50Z</time>
      </trkpt>
      <trkpt lat="42.69159" lon="9.27825">
        <ele>-6.07</ele>
        <time>2017-06-01T13:56:07Z</time>
      </trkpt>
      <trkpt lat="42.69134" lon="9.27849">
        <ele>-6.01</ele>
        <time>2017-06-01T13:56:24Z</time>
      </trkpt>
      <trkpt lat="42.69114" lon="9.27871">
        <ele>-5.96</ele>
        <time>2017-06-01T13:56:38Z</time>
      </trkpt>
      <trkpt lat="42.69088" lon="9.27898">
        <ele>-5.97</ele>
        <time>2017-06-01T13:56:55Z</time>
      </trkpt>
      <trkpt lat="42.69058" lon="9.27919">
        <ele>-5.75</ele>
        <time>2017-06-01T13:57:11Z</time>
      </trkpt>
      <trkpt lat="42.69024" lon="9.27939">
        <ele>-5.82</ele>
        <time>2017-06-01T13:57:28Z</time>
      </trkpt>
      <trkpt lat="42.68992" lon="9.27961">
        <ele>-5.81</ele>
        <time>2017-06-01T13:57:44Z</time>
      </trkpt>
      <trkpt lat="42.68963" lon="9.27982">
        <ele>-5.84</ele>
        <time>2017-06-01T13:57:59Z</time>
      </trkpt>
      <trkpt lat="42.68932" lon="9.28001">
        <ele>-5.64</ele>
        <time>2017-06-01T13:58:14Z</time>
      </trkpt>
      <trkpt lat="42.68899" lon="9.2802">
        <ele>-5.7</ele>
        <time>2017-06-01T13:58:30Z</time>
      </trkpt>
      <trkpt lat="42.68862" lon="9.28043">
        <ele>-5.61</ele>
        <time>2017-06-01T13:58:48Z</time>
      </trkpt>
      <trkpt lat="42.68829" lon="9.28065">
        <ele>-5.78</ele>
        <time>2017-06-01T13:59:04Z</time>
      </trkpt>
      <trkpt lat="42.68798" lon="9.28079">
        <ele>-5.63</ele>
        <time>2017-06-01T13:59:19Z</time>
      </trkpt>
      <trkpt lat="42.68761" lon="9.28093">
        <ele>-5.74</ele>
        <time>2017-06-01T13:59:36Z</time>
      </trkpt>
      <trkpt lat="42.68725" lon="9.28107">
        <ele>-5.69</ele>
        <time>2017-06-01T13:59:52Z</time>
      </trkpt>
      <trkpt lat="42.68689" lon="9.28125">
        <ele>-5.96</ele>
        <time>2017-06-01T14:00:09Z</time>
      </trkpt>
      <trkpt lat="42.68651" lon="9.28138">
        <ele>-5.76</ele>
        <time>2017-06-01T14:00:26Z</time>
      </trkpt>
      <trkpt lat="42.68614" lon="9.28152">
        <ele>-5.94</ele>
        <time>2017-06-01T14:00:42Z</time>
      </trkpt>
      <trkpt lat="42.68578" lon="9.28171">
        <ele>-6.04</ele>
        <time>2017-06-01T14:00:58Z</time>
      </trkpt>
      <trkpt lat="42.68546" lon="9.2819">
        <ele>-6.04</ele>
        <time>2017-06-01T14:01:13Z</time>
      </trkpt>
      <trkpt lat="42.68509" lon="9.28208">
        <ele>-5.85</ele>
        <time>2017-06-01T14:01:30Z</time>
      </trkpt>
      <trkpt lat="42.68464" lon="9.28225">
        <ele>-5.97</ele>
        <time>2017-06-01T14:01:49Z</time>
      </trkpt>
      <trkpt lat="42.68422" lon="9.28242">
        <ele>-5.83</ele>
        <time>2017-06-01T14:02:07Z</time>
      </trkpt>
      <trkpt lat="42.68388" lon="9.28261">
        <ele>-5.86</ele>
        <time>2017-06-01T14:02:22Z</time>
      </trkpt>
      <trkpt lat="42.68351" lon="9.28278">
        <ele>-5.98</ele>
        <time>2017-06-01T14:02:38Z</time>
      </trkpt>
      <trkpt lat="42.68317" lon="9.28293">
        <ele>-5.98</ele>
        <time>2017-06-01T14:02:53Z</time>
      </trkpt>
      <trkpt lat="42.68279" lon="9.28303">
        <ele>-5.71</ele>
        <time>2017-06-01T14:03:10Z</time>
      </trkpt>
      <trkpt lat="42.68251" lon="9.28308">
        <ele>-5.99</ele>
        <time>2017-06-01T14:03:24Z</time>
      </trkpt>
      <trkpt lat="42.68219" lon="9.2832">
        <ele>-5.9</ele>
        <time>2017-06-01T14:03:38Z</time>
      </trkpt>
      <trkpt lat="42.68187" lon="9.28333">
        <ele>-5.99</ele>
        <time>2017-06-01T14:03:52Z</time>
      </trkpt>
      <trkpt lat="42.68158" lon="9.28346">
        <ele>-5.89</ele>
        <time>2017-06-01T14:04:05Z</time>
      </trkpt>
      <trkpt lat="42.68125" lon="9.28359">
        <ele>-6.05</ele>
        <time>2017-06-01T14:04:20Z</time>
      </trkpt>
      <trkpt lat="42.68097" lon="9.28364">
        <ele>-5.79</ele>
        <time>2017-06-01T14:04:32Z</time>
      </trkpt>
      <trkpt lat="42.68063" lon="9.2837">
        <ele>-6.02</ele>
        <time>2017-06-01T14:04:47Z</time>
      </trkpt>
      <trkpt lat="42.68034" lon="9.28372">
        <ele>-6.18</ele>
        <time>2017-06-01T14:05:00Z</time>
      </trkpt>
      <trkpt lat="42.68005" lon="9.28379">
        <ele>-6.05</ele>
        <time>2017-06-01T14:05:13Z</time>
      </trkpt>
      <trkpt lat="42.67973" lon="9.28386">
        <ele>-5.99</ele>
        <time>2017-06-01T14:05:28Z</time>
      </trkpt>
      <trkpt lat="42.67951" lon="9.2839">
        <ele>-6.01</ele>
        <time>2017-06-01T14:05:40Z</time>
      </trkpt>
      <trkpt lat="42.67946" lon="9.28392">
        <ele>-5.99</ele>
        <time>2017-06-01T14:05:43Z</time>
      </trkpt>
      <trkpt lat="42.67917" lon="9.28397">
        <ele>-6.12</ele>
        <time>2017-06-01T14:06:01Z</time>
      </trkpt>
      <trkpt lat="42.67895" lon="9.28401">
        <ele>-5.96</ele>
        <time>2017-06-01T14:06:17Z</time>
      </trkpt>
      <trkpt lat="42.67863" lon="9.28407">
        <ele>-5.98</ele>
        <time>2017-06-01T14:06:33Z</time>
      </trkpt>
      <trkpt lat="42.67827" lon="9.28409">
        <ele>-5.59</ele>
        <time>2017-06-01T14:06:50Z</time>
      </trkpt>
      <trkpt lat="42.67809" lon="9.28408">
        <ele>-5.7</ele>
        <time>2017-06-01T14:07:03Z</time>
      </trkpt>
      <trkpt lat="42.6778" lon="9.28404">
        <ele>-5.54</ele>
        <time>2017-06-01T14:07:21Z</time>
      </trkpt>
      <trkpt lat="42.67752" lon="9.28402">
        <ele>-5.62</ele>
        <time>2017-06-01T14:07:38Z</time>
      </trkpt>
      <trkpt lat="42.67736" lon="9.28399">
        <ele>-5.54</ele>
        <time>2017-06-01T14:07:53Z</time>
      </trkpt>
      <trkpt lat="42.67733" lon="9.28399">
        <ele>-4.91</ele>
        <time>2017-06-01T14:08:13Z</time>
      </trkpt>
      <trkpt lat="42.67721" lon="9.28392">
        <ele>-4.75</ele>
        <time>2017-06-01T14:08:37Z</time>
      </trkpt>
      <trkpt lat="42.67709" lon="9.28384">
        <ele>-4.65</ele>
        <time>2017-06-01T14:08:56Z</time>
      </trkpt>
      <trkpt lat="42.67701" lon="9.28381">
        <ele>-4.1</ele>
        <time>2017-06-01T14:09:06Z</time>
      </trkpt>
      <trkpt lat="42.67693" lon="9.28376">
        <ele>-3.78</ele>
        <time>2017-06-01T14:09:21Z</time>
      </trkpt>
      <trkpt lat="42.67693" lon="9.28379">
        <ele>-10.65</ele>
        <time>2017-06-01T14:09:31Z</time>
      </trkpt>
    </trkseg>
  </trk>
</gpx>